HOURLY OBS INDEX

009

Lower West, Southwest & South Coast

ALBANY AIRPORT

Site: 009999
Alt: 68.4m
10km NW of ALBANY


  Time     Wind        Temp  DP   Baro     Rain since   Rain past  Vis(m), Cloud(base in m), Weather
  local        km/h                         9am  last   hr   10m    
Wed 13:00  WSW 15/ 26  16.6  8.6  1026.2    0.0   0.0   0.0   0.0   10000|SC 870 
Wed 13:30    W 15/ 20  17.8  9.7  1025.9    0.0   0.0   0.0   0.0   10000 
Wed 14:00    W 13/ 24  17.8  9.4  1025.6    0.0   0.0   0.0   0.0   10000 
Wed 14:30   SW 11/ 20  18.5 10.6  1025.3    0.0   0.0   0.0   0.0   10000 
Wed 15:00    S 19/ 26  17.7 12.4  1025.3    0.0   0.0   0.0   0.0   10000|SC 750 
Wed 15:30  SSW 20/ 26  16.5 11.9  1025.2    0.0   0.0   0.0   0.0   10000|SC 660 
Wed 16:00  SSW 20/ 26  16.7 12.3  1025.3    0.0   0.0   0.0   0.0   10000|SC 600 
Wed 16:30  SSW 22/ 28  15.0 11.4  1025.4    0.0   0.0   0.0   0.0   10000|BR 600 
Wed 17:00  SSW 20/ 26  14.6 11.4  1025.5    0.0   0.0   0.0   0.0   10000|OC 600 
Wed 17:30   SW 15/ 20  14.3 10.9  1025.6    0.0   0.0   0.0   0.0   10000|OC 600 
Wed 18:00  WSW 15/ 20  13.8 10.4  1025.8    0.0   0.0   0.0   0.0   10000|BR 600 
Wed 18:30  WSW 11/ 15  12.9 10.1  1026.1    0.0   0.0   0.0   0.0   10000|SC 540 

BADGINGARRA AG STATION

Site: 009GBA
Alt: 284 m
56km NW of MOORA


  Time     Wind        Temp  DP   Baro     Rain since   Rain past  Vis(m), Cloud(base in m), Weather
  local        km/h                         9am  last   hr   10m    
Wed 13:00  SSE  7/ 17  19.6  9.7  ------    0.0   0.0   0.0   0.0   ----- 
Wed 13:30  SSE  6/ 13  20.3  9.4  ------    0.0   0.0   0.0   0.0   ----- 
Wed 14:00   SE  7/ 19  20.1  7.6  ------    0.0   0.0   0.0   0.0   ----- 
Wed 14:30  ESE  9/ 17  20.4  7.2  ------    0.0   0.0   0.0   0.0   ----- 
Wed 15:00   SE  9/ 22  20.8  6.7  ------    0.0   0.0   0.0   0.0   ----- 
Wed 15:30  SSE  7/ 15  21.2  7.8  ------    0.0   0.0   0.0   0.0   ----- 
Wed 16:00   SE  7/ 15  20.9  6.7  ------    0.0   0.0   0.0   0.0   ----- 
Wed 16:30   SE  9/ 17  20.2  6.1  ------    0.0   0.0   0.0   0.0   ----- 
Wed 17:00  SSE  7/ 15  19.7  7.6  ------    0.0   0.0   0.0   0.0   ----- 
Wed 17:30  SSE  7/ 15  17.9  8.9  ------    0.0   0.0   0.0   0.0   ----- 
Wed 18:00  SSE  6/  7  14.9  8.8  ------    0.0   0.0   0.0   0.0   ----- 
Wed 18:30  SSE  6/  7  12.1  8.2  ------    0.0   0.0   0.0   0.0   ----- 

BADGINGARRA RESEARCH STN

Site: 009037
Alt: 275.0m
55km NW of MOORA


  Time     Wind        Temp  DP   Baro     Rain since   Rain past  Vis(m), Cloud(base in m), Weather
  local        km/h                         9am  last   hr   10m    
Wed 13:00  SSE 11/ 20  19.2  9.9  ------    0.0   0.0   0.0   0.0   ----- 
Wed 13:30  SSE 11/ 17  19.6 10.0  ------    0.0   0.0   0.0   0.0   ----- 
Wed 14:00   SE 11/ 22  20.1  8.4  ------    0.0   0.0   0.0   0.0   ----- 
Wed 14:30  ESE 13/ 19  20.4  7.4  ------    0.0   0.0   0.0   0.0   ----- 
Wed 15:00   SE 13/ 22  20.4  7.1  ------    0.0   0.0   0.0   0.0   ----- 
Wed 15:30  SSE 11/ 19  20.7  7.7  ------    0.0   0.0   0.0   0.0   ----- 
Wed 16:00   SE 11/ 19  20.5  7.5  ------    0.0   0.0   0.0   0.0   ----- 
Wed 16:30  ESE 13/ 17  20.0  6.7  ------    0.0   0.0   0.0   0.0   ----- 
Wed 17:00  SSE 11/ 19  19.1  7.5  ------    0.0   0.0   0.0   0.0   ----- 
Wed 17:30  SSE 13/ 19  17.4  8.8  ------    0.0   0.0   0.0   0.0   ----- 
Wed 18:00  SSE 11/ 13  14.4  8.6  ------    0.0   0.0   0.0   0.0   ----- 
Wed 18:30  SSE 11/ 13  12.1  8.0  ------    0.0   0.0   0.0   0.0   ----- 

BICKLEY

Site: 009240
Alt: 384.0m
27km ESE of PERTH CBD


  Time     Wind        Temp  DP   Baro     Rain since   Rain past  Vis(m), Cloud(base in m), Weather
  local        km/h                         9am  last   hr   10m    
Wed 13:00    S  6/ 11  16.0  9.0  ------    0.0   0.0   0.0   0.0   ----- 
Wed 13:30    E  6/  9  15.9  6.6  ------    0.0   0.0   0.0   0.0   ----- 
Wed 14:00    S  7/ 11  17.2  6.7  ------    0.0   0.0   0.0   0.0   ----- 
Wed 14:30   SW  6/ 11  17.7  6.9  ------    0.0   0.0   0.0   0.0   ----- 
Wed 15:00    E  6/ 11  18.9  7.7  ------    0.0   0.0   0.0   0.0   ----- 
Wed 15:30  WSW  6/ 15  18.4  8.9  ------    0.0   0.0   0.0   0.0   ----- 
Wed 16:00  SSW  7/ 11  18.2  8.7  ------    0.0   0.0   0.0   0.0   ----- 
Wed 16:30    W 13/ 20  17.5  9.2  ------    0.0   0.0   0.0   0.0   ----- 
Wed 17:00  WSW 17/ 26  15.7  9.6  ------    0.0   0.0   0.0   0.0   ----- 
Wed 17:30  WSW 13/ 22  14.2  9.4  ------    0.0   0.0   0.0   0.0   ----- 
Wed 18:00  WSW 13/ 20  13.1  9.4  ------    0.0   0.0   0.0   0.0   ----- 
Wed 18:30  WSW 13/ 22  12.1  9.1  ------    0.0   0.0   0.0   0.0   ----- 

BREMER BAY AG STATION

Site: 009UPW
Alt: 100m
41km ENE of ESPERANCE


  Time     Wind        Temp  DP   Baro     Rain since   Rain past  Vis(m), Cloud(base in m), Weather
  local        km/h                         9am  last   hr   10m    
Wed 13:00   SW 15/ 24  16.2 11.0  ------    0.0   0.0   0.0   0.0   ----- 
Wed 13:30   SW 17/ 26  15.8 10.5  ------    0.0   0.0   0.0   0.0   ----- 
Wed 14:00  WSW 17/ 24  15.3  9.8  ------    0.0   0.0   0.0   0.0   ----- 
Wed 14:30  WSW 15/ 22  16.4 10.7  ------    0.0   0.0   0.0   0.0   ----- 
Wed 15:00   SW 15/ 24  15.9 10.7  ------    0.0   0.0   0.0   0.0   ----- 
Wed 15:30  WSW 13/ 19  14.7  9.9  ------    0.0   0.0   0.0   0.0   ----- 
Wed 16:00  WSW 13/ 19  15.2 10.1  ------    0.0   0.0   0.0   0.0   ----- 
Wed 16:30   SW 11/ 17  14.8  9.7  ------    0.0   0.0   0.0   0.0   ----- 
Wed 17:00   SW  9/ 17  14.0 10.2  ------    0.0   0.0   0.0   0.0   ----- 
Wed 17:30   SW  7/ 11  12.9  9.7  ------    0.0   0.0   0.0   0.0   ----- 
Wed 18:00   SW  7/ 15  12.7 10.0  ------    0.0   0.0   0.0   0.0   ----- 
Wed 18:30  SSW  6/  9  12.3  9.8  ------    0.0   0.0   0.0   0.0   ----- 

BRIDGETOWN

Site: 009617
Alt: 178.7m
33km N of MANJIMUP


  Time     Wind        Temp  DP   Baro     Rain since   Rain past  Vis(m), Cloud(base in m), Weather
  local        km/h                         9am  last   hr   10m    
Wed 13:00  SSE  6/  9  17.7  9.8  1026.6    0.0   0.0   0.0   0.0   ----- 
Wed 13:30  WSW  4/  9  18.2 10.3  1026.1    0.0   0.0   0.0   0.0   ----- 
Wed 14:00   NW  6/ 15  18.2  9.5  1025.7    0.0   0.0   0.0   0.0   ----- 
Wed 14:30    N  4/ 11  18.7  8.7  1025.5    0.0   0.0   0.0   0.0   ----- 
Wed 15:00    W  6/  9  19.8 10.0  1025.2    0.0   0.0   0.0   0.0   ----- 
Wed 15:30    W  6/ 11  19.9 10.0  1025.0    0.0   0.0   0.0   0.0   ----- 
Wed 16:00    W  4/ 11  19.7 10.4  1025.0    0.0   0.0   0.0   0.0   ----- 
Wed 16:30   NW  6/ 11  19.3  9.8  1025.0    0.0   0.0   0.0   0.0   ----- 
Wed 17:00  WNW  4/  7  19.2  9.1  1025.0    0.0   0.0   0.0   0.0   ----- 
Wed 17:30    C  0/  2  17.6  8.7  1025.1    0.0   0.0   0.0   0.0   ----- 
Wed 18:00    C  0/  0  16.2  8.7  1025.2    0.0   0.0   0.0   0.0   ----- 
Wed 18:30    C  0/  4  14.2  9.2  1025.4    0.0   0.0   0.0   0.0   ----- 

BUNBURY

Site: 009965
Alt: 5.2m
2km S of BUNBURY


  Time     Wind        Temp  DP   Baro     Rain since   Rain past  Vis(m), Cloud(base in m), Weather
  local        km/h                         9am  last   hr   10m    
Wed 13:00    W 13/ 17  16.2  9.6  1027.6    0.0   0.0   0.0   0.0   ----- 
Wed 13:30  WNW 15/ 20  16.3  9.9  1027.2    0.0   0.0   0.0   0.0   ----- 
Wed 14:00  WNW 15/ 20  16.7 10.1  1026.9    0.0   0.0   0.0   0.0   ----- 
Wed 14:30    W 15/ 20  16.3  9.5  1026.6    0.0   0.0   0.0   0.0   ----- 
Wed 15:00    W 17/ 24  16.2  9.8  1026.5    0.0   0.0   0.0   0.0   ----- 
Wed 15:30    W 15/ 20  16.1 10.2  1026.2    0.0   0.0   0.0   0.0   ----- 
Wed 16:00  WSW 13/ 20  15.1  9.9  1026.3    0.0   0.0   0.0   0.0   ----- 
Wed 16:30  WSW 15/ 20  16.2 10.1  1026.1    0.0   0.0   0.0   0.0   ----- 
Wed 17:00  WSW 13/ 20  15.7 10.2  1026.2    0.0   0.0   0.0   0.0   ----- 
Wed 17:30  WSW 13/ 19  15.1 10.1  1026.2    0.0   0.0   0.0   0.0   ----- 
Wed 18:00  WSW  9/ 19  14.4  9.6  1026.4    0.0   0.0   0.0   0.0   ----- 
Wed 18:30  WSW  6/ 13  13.9  9.5  1026.3    0.0   0.0   0.0   0.0   ----- 

BUSSELTON AERO

Site: 009603
Alt: 16.3m
5km ESE of BUSSELTON


  Time     Wind        Temp  DP   Baro     Rain since   Rain past  Vis(m), Cloud(base in m), Weather
  local        km/h                         9am  last   hr   10m    
Wed 13:00  NNW 13/ 20  17.0 10.6  1027.1    0.0   0.0   0.0   0.0   ----- 
Wed 13:30  NNW 15/ 22  16.8 10.4  1026.7    0.0   0.0   0.0   0.0   ----- 
Wed 14:00   NW 17/ 22  16.9 11.0  1026.5    0.0   0.0   0.0   0.0   ----- 
Wed 14:30   NW 17/ 22  16.7 10.5  1026.3    0.0   0.0   0.0   0.0   ----- 
Wed 15:00   NW 17/ 22  16.0 10.3  1026.1    0.0   0.0   0.0   0.0   ----- 
Wed 15:30   NW 19/ 24  17.1 10.7  1025.8    0.0   0.0   0.0   0.0   ----- 
Wed 16:00   NW 19/ 22  17.0 10.4  1025.6    0.0   0.0   0.0   0.0   ----- 
Wed 16:30    W 17/ 20  17.5 10.9  1025.7    0.0   0.0   0.0   0.0   ----- 
Wed 17:00  WSW 19/ 24  16.9 10.3  1025.7    0.0   0.0   0.0   0.0   ----- 
Wed 17:30  WSW 17/ 22  16.1 10.2  1025.8    0.0   0.0   0.0   0.0   ----- 
Wed 18:00  WSW 15/ 22  15.0  9.6  1026.1    0.0   0.0   0.0   0.0   ----- 
Wed 18:30  WSW 15/ 19  13.9  9.1  1026.2    0.0   0.0   0.0   0.0   ----- 

CAPE LEEUWIN

Site: 009518
Alt: 13.0m
47km S of MARGARET RIVER


  Time     Wind        Temp  DP   Baro     Rain since   Rain past  Vis(m), Cloud(base in m), Weather
  local        km/h                         9am  last   hr   10m    
Wed 13:00    W 17/ 20  15.6  8.0  1027.5    0.0   0.0   0.0   0.0   ----- 
Wed 13:30    W 20/ 24  15.7  8.3  1027.3    0.0   0.0   0.0   0.0   ----- 
Wed 14:00    W 19/ 24  16.1  8.6  1027.1    0.0   0.0   0.0   0.0   ----- 
Wed 14:30    W 20/ 24  16.2  8.5  1026.7    0.0   0.0   0.0   0.0   ----- 
Wed 15:00    W 20/ 22  16.0  9.2  1026.6    0.0   0.0   0.0   0.0   ----- 
Wed 15:30    W 20/ 24  16.2  9.6  1026.3    0.0   0.0   0.0   0.0   ----- 
Wed 16:00    W 20/ 26  16.0  9.4  1026.3    0.0   0.0   0.0   0.0   ----- 
Wed 16:30    W 20/ 24  15.8  9.2  1026.2    0.0   0.0   0.0   0.0   ----- 
Wed 17:00  WSW 20/ 24  15.0  9.5  1026.2    0.0   0.0   0.0   0.0   ----- 
Wed 17:30    W 19/ 22  15.1  9.4  1026.2    0.0   0.0   0.0   0.0   ----- 
Wed 18:00    W 17/ 20  14.4  9.9  1026.3    0.0   0.0   0.0   0.0   ----- 
Wed 18:30    W 19/ 24  14.1 10.2  1026.4    0.0   0.0   0.0   0.0   ----- 

CAPE NATURALISTE

Site: 009519
Alt: 109.0m
34km WNW of BUSSELTON


  Time     Wind        Temp  DP   Baro     Rain since   Rain past  Vis(m), Cloud(base in m), Weather
  local        km/h                         9am  last   hr   10m    
Wed 13:00  WSW 17/ 22  17.2  8.9  1027.4    0.0   0.0   0.0   0.0   ----- 
Wed 13:30  WSW 17/ 24  16.6  8.8  1027.1    0.0   0.0   0.0   0.0   ----- 
Wed 14:00   SW 17/ 24  16.9  8.8  1026.8    0.0   0.0   0.0   0.0   ----- 
Wed 14:30  WSW 19/ 24  16.5  8.7  1026.7    0.0   0.0   0.0   0.0   ----- 
Wed 15:00    W 19/ 24  16.9  8.6  1026.5    0.0   0.0   0.0   0.0   ----- 
Wed 15:30  WSW 19/ 24  16.5  8.7  1026.2    0.0   0.0   0.0   0.0   ----- 
Wed 16:00  WSW 19/ 24  16.5  9.2  1026.2    0.0   0.0   0.0   0.0   ----- 
Wed 16:30  WSW 24/ 28  15.7  9.1  1026.0    0.0   0.0   0.0   0.0   ----- 
Wed 17:00   SW 22/ 28  15.1  9.0  1026.0    0.0   0.0   0.0   0.0   ----- 
Wed 17:30   SW 24/ 30  14.2  8.8  1026.0    0.0   0.0   0.0   0.0   ----- 
Wed 18:00   SW 22/ 28  13.0  8.3  1025.9    0.0   0.0   0.0   0.0   ----- 
Wed 18:30   SW 22/ 28  12.3  8.6  1026.0    0.0   0.0   0.0   0.0   ----- 

COLLIE EAST

Site: 009994
Alt: 200.0m
2km ESE of COLLIE


  Time     Wind        Temp  DP   Baro     Rain since   Rain past  Vis(m), Cloud(base in m), Weather
  local        km/h                         9am  last   hr   10m    
Wed 13:00  NNW  7/ 13  17.6  8.5  ------    0.0   0.0   0.0   0.0   ----- 
Wed 13:30    N  9/ 15  18.3  8.6  ------    0.0   0.0   0.0   0.0   ----- 
Wed 14:00    N  7/  9  18.9  8.0  ------    0.0   0.0   0.0   0.0   ----- 
Wed 14:30   SW  4/  9  19.7  8.4  ------    0.0   0.0   0.0   0.0   ----- 
Wed 15:00    N  7/ 13  19.6  8.9  ------    0.0   0.0   0.0   0.0   ----- 
Wed 15:30  WNW  7/ 11  20.4  8.7  ------    0.0   0.0   0.0   0.0   ----- 
Wed 16:00  WNW  6/ 15  20.4  8.4  ------    0.0   0.0   0.0   0.0   ----- 
Wed 16:30  WNW  7/ 15  20.0  8.7  ------    0.0   0.0   0.0   0.0   ----- 
Wed 17:00  WNW  9/ 17  17.7 10.3  ------    0.0   0.0   0.0   0.0   ----- 
Wed 17:30    W  7/ 13  17.0 10.1  ------    0.0   0.0   0.0   0.0   ----- 
Wed 18:00  WNW  7/ 13  15.2 10.0  ------    0.0   0.0   0.0   0.0   ----- 
Wed 18:30    W  4/  9  14.2  9.6  ------    0.0   0.0   0.0   0.0   ----- 

COOMALBIDGUP AG STATION

Site: 009MLP
Alt: 90m
57km WNW of ESPERANCE


  Time     Wind        Temp  DP   Baro     Rain since   Rain past  Vis(m), Cloud(base in m), Weather
  local        km/h                         9am  last   hr   10m    
Wed 13:00  SSW 13/ 22  16.7 12.3  ------    0.6   0.0   0.0   0.0   ----- 
Wed 13:30   SW 13/ 22  16.5 12.2  ------    0.6   0.0   0.0   0.0   ----- 
Wed 14:00   SW 15/ 24  15.4 11.8  ------    0.6   0.0   0.0   0.0   ----- 
Wed 14:30   SW 13/ 22  16.3 12.0  ------    0.6   0.0   0.0   0.0   ----- 
Wed 15:00    S 11/ 20  14.9 12.1  ------    0.6   0.0   0.0   0.0   ----- 
Wed 15:30    S 11/ 20  16.7 12.0  ------    0.6   0.0   0.0   0.0   ----- 
Wed 16:00  SSW 11/ 19  16.2 11.7  ------    0.6   0.0   0.0   0.0   ----- 
Wed 16:30    S  9/ 17  16.1 12.0  ------    0.6   0.0   0.0   0.0   ----- 
Wed 17:00  SSW 13/ 19  14.9 11.8  ------    0.6   0.0   0.0   0.0   ----- 
Wed 17:30  SSW  7/ 15  14.1 11.6  ------    0.6   0.0   0.0   0.0   ----- 
Wed 18:00  SSW  7/ 13  13.4 11.8  ------    0.6   0.0   0.0   0.0   ----- 
Wed 18:30  SSE  2/  4  12.9 11.6  ------    0.6   0.0   0.0   0.0   ----- 

DARDANUP

Site: 009GDA
Alt: 24 m
13km E of BUNBURY


  Time     Wind        Temp  DP   Baro     Rain since   Rain past  Vis(m), Cloud(base in m), Weather
  local        km/h                         9am  last   hr   10m    
Wed 13:00    W 11/---  17.2 12.8  ------    0.0   0.0   0.0   0.0   ----- 
Wed 13:30   NW 13/---  17.0 12.3  ------    0.0   0.0   0.0   0.0   ----- 
Wed 14:00    W 11/---  16.9 12.3  ------    0.0   0.0   0.0   0.0   ----- 
Wed 14:30    W 13/---  17.2 12.9  ------    0.0   0.0   0.0   0.0   ----- 
Wed 15:00    W 11/---  17.4 12.8  ------    0.0   0.0   0.0   0.0   ----- 
Wed 15:30    W  9/---  16.8 12.1  ------    0.0   0.0   0.0   0.0   ----- 
Wed 16:00  WSW 11/---  16.4 12.3  ------    0.0   0.0   0.0   0.0   ----- 
Wed 16:30    W  9/---  15.6 12.3  ------    0.0   0.0   0.0   0.0   ----- 
Wed 17:00  WSW  9/---  16.0 12.2  ------    0.0   0.0   0.0   0.0   ----- 
Wed 17:30  WSW  7/---  15.4 12.4  ------    0.0   0.0   0.0   0.0   ----- 
Wed 18:00  WSW  7/---  13.5 11.5  ------    0.0   0.0   0.0   0.0   ----- 
Wed 18:30  WSW  4/---  11.8 10.5  ------    0.0   0.0   0.0   0.0   ----- 

DONNYBROOK AG STATION

Site: 009GDB
Alt: 71 m
33km SE of BUNBURY


  Time     Wind        Temp  DP   Baro     Rain since   Rain past  Vis(m), Cloud(base in m), Weather
  local        km/h                         9am  last   hr   10m    
Wed 13:00  ESE  4/  9  18.5 10.2  ------    0.0   0.0   0.0   0.0   ----- 
Wed 13:30   NE  4/ 11  18.9  9.7  ------    0.0   0.0   0.0   0.0   ----- 
Wed 14:00    S  2/  6  20.8 11.0  ------    0.0   0.0   0.0   0.0   ----- 
Wed 14:30    W  2/  7  20.6  9.6  ------    0.0   0.0   0.0   0.0   ----- 
Wed 15:00    W  7/ 15  20.5 11.5  ------    0.0   0.0   0.0   0.0   ----- 
Wed 15:30    W  6/ 15  19.7 12.6  ------    0.0   0.0   0.0   0.0   ----- 
Wed 16:00    W  9/ 19  16.6 11.0  ------    0.0   0.0   0.0   0.0   ----- 
Wed 16:30  WNW  7/ 17  17.0 11.3  ------    0.0   0.0   0.0   0.0   ----- 
Wed 17:00   NW  7/ 15  16.2 11.0  ------    0.0   0.0   0.0   0.0   ----- 
Wed 17:30  WNW  6/  9  15.9 11.3  ------    0.0   0.0   0.0   0.0   ----- 
Wed 18:00  WNW  4/  9  14.4 10.7  ------    0.0   0.0   0.0   0.0   ----- 
Wed 18:30   NW  2/  4  12.9 10.5  ------    0.0   0.0   0.0   0.0   ----- 

DWELLINGUP

Site: 009538
Alt: 267.0m
37km ESE of MANDURAH


  Time     Wind        Temp  DP   Baro     Rain since   Rain past  Vis(m), Cloud(base in m), Weather
  local        km/h                         9am  last   hr   10m    
Wed 13:00   SE  9/ 13  17.2  5.5  1026.9    0.0   0.0   0.0   0.0   ----- 
Wed 13:30  NNW  7/ 13  18.2  6.1  1026.5    0.0   0.0   0.0   0.0   ----- 
Wed 14:00  WSW 11/ 17  18.2  8.2  1026.0    0.0   0.0   0.0   0.0   ----- 
Wed 14:30  WSW  9/ 17  18.4  9.7  1025.8    0.0   0.0   0.0   0.0   ----- 
Wed 15:00    W 13/ 20  18.0 10.1  1025.7    0.0   0.0   0.0   0.0   ----- 
Wed 15:30  WSW 13/ 20  17.7  9.1  1025.5    0.0   0.0   0.0   0.0   ----- 
Wed 16:00  WSW 13/ 22  17.5  9.9  1025.6    0.0   0.0   0.0   0.0   ----- 
Wed 16:30  WSW 13/ 19  16.3  9.7  1025.6    0.0   0.0   0.0   0.0   ----- 
Wed 17:00  WSW 15/ 20  15.1  9.5  1025.7    0.0   0.0   0.0   0.0   ----- 
Wed 17:30    W 13/ 20  13.9  9.1  1025.8    0.0   0.0   0.0   0.0   ----- 
Wed 18:00   SW 11/ 19  13.2  9.3  1026.0    0.0   0.0   0.0   0.0   ----- 
Wed 18:30   SW 13/ 19  12.4  9.1  1026.1    0.0   0.0   0.0   0.0   ----- 

ESPERANCE

Site: 009789
Alt: 25.0m
3km N of ESPERANCE


  Time     Wind        Temp  DP   Baro     Rain since   Rain past  Vis(m), Cloud(base in m), Weather
  local        km/h                         9am  last   hr   10m    
Wed 13:00   SW 17/ 24  16.6  9.5  1026.5    0.2   0.0   0.0   0.0  *10000|SC 780cu 
Wed 13:30   SW 19/ 30  15.5  9.4  1026.2    0.2   0.0   0.0   0.0  *10000|BR 690sc 
Wed 14:00   SW 13/ 22  17.1 10.0  1025.9    0.2   0.0   0.0   0.0  *10000|BR 690sc 
Wed 14:30  SSW 15/ 26  17.5 10.4  1025.9    0.2   0.0   0.0   0.0  *10000|BR 690sc 
Wed 15:00  SSW 15/ 24  16.5  9.7  1025.6    0.2   0.0   0.0   0.0   10000|OC 750 
Wed 15:30  WSW 15/ 24  15.9  9.3  1025.7    0.2   0.0   0.0   0.0   10000|BR 750 
Wed 16:00  SSW 13/ 22  15.5  9.8  1025.6    0.2   0.0   0.0   0.0   10000|OC 690 OC 840 
Wed 16:30  WSW 13/ 20  15.6  9.1  1025.9    0.2   0.0   0.0   0.0   10000|SC 630 
Wed 17:00   SW 11/ 15  14.9  9.5  1026.1    0.2   0.0   0.0   0.0   10000|BR 630 
Wed 17:30    S  9/ 15  13.9 10.5  1026.3    0.2   0.0   0.0   0.0   10000|SC 450 OC 630 OC 810 
Wed 18:00  SSW  7/ 11  13.5 10.5  1026.3    0.2   0.0   0.0   0.0   10000|SC 720 OC 930 
Wed 18:30   SW  6/  7  13.5 10.3  1026.6    0.2   0.0   0.0   0.0   10000|BR 810 OC 960 

ESPERANCE AERO

Site: 009542
Alt: 142.0m
21km NNW of ESPERANCE


  Time     Wind        Temp  DP   Baro     Rain since   Rain past  Vis(m), Cloud(base in m), Weather
  local        km/h                         9am  last   hr   10m    
Wed 13:00   SW 20/ 30  15.5 10.7  1026.5    0.2   0.0   0.0   0.0   10000|SC 690 BR 810 OC1170 
Wed 13:30   SW 20/ 30  16.3 10.8  1026.2    0.2   0.0   0.0   0.0   10000|SC 690 BR 870 OC 990 
Wed 14:00   SW 20/ 28  15.5 10.7  1026.0    0.2   0.0   0.0   0.0   10000|SC 690 BR 870 OC1110 
Wed 14:30   SW 20/ 28  15.6  9.7  1026.0    0.2   0.0   0.0   0.0   10000|SC 750 SC 870 
Wed 15:00   SW 19/ 22  15.4 10.4  1025.7    0.2   0.0   0.0   0.0   10000|BR 690 
Wed 15:30   SW 19/ 26  15.2 10.6  1025.7    0.2   0.0   0.0   0.0   10000|OC 690 
Wed 16:00   SW 15/ 20  14.8 10.4  1025.8    0.2   0.0   0.0   0.0   10000|BR 630 
Wed 16:30  WSW 17/ 24  14.4 10.0  1025.9    0.2   0.0   0.0   0.0   10000|BR 570 OC 750 
Wed 17:00   SW 17/ 19  13.9 10.3  1026.2    0.2   0.0   0.0   0.0   10000|BR 660 BR 810 
Wed 17:30   SW 17/ 20  13.3 10.1  1026.3    0.2   0.0   0.0   0.0   10000|OC 720 
Wed 18:00  SSW  9/ 13  13.1 10.3  1026.4    0.2   0.0   0.0   0.0   10000|OC 660 
Wed 18:30  SSW  9/ 13  12.8 10.7  1026.7    0.2   0.0   0.0   0.0   10000|OC 540 

ESPERANCE AG STATION

Site: 009GES
Alt: 158 m
158km NNW of ESPERANCE


  Time     Wind        Temp  DP   Baro     Rain since   Rain past  Vis(m), Cloud(base in m), Weather
  local        km/h                         9am  last   hr   10m    
Wed 13:00  SSW  7/ 17  15.4 11.4  ------    0.6   0.0   0.0   0.0   ----- 
Wed 13:30  SSW 11/ 20  15.8 11.0  ------    0.6   0.0   0.0   0.0   ----- 
Wed 14:00  SSW  9/ 19  15.9 11.0  ------    0.6   0.0   0.0   0.0   ----- 
Wed 14:30   SW  7/ 17  15.7 11.5  ------    0.6   0.0   0.0   0.0   ----- 
Wed 15:00  SSW  9/ 20  15.7 10.8  ------    0.6   0.0   0.0   0.0   ----- 
Wed 15:30    S  9/ 17  15.3 11.1  ------    0.6   0.0   0.0   0.0   ----- 
Wed 16:00  SSW 11/ 22  15.0 10.8  ------    0.6   0.0   0.0   0.0   ----- 
Wed 16:30  SSW  7/ 15  14.4 10.7  ------    0.6   0.0   0.0   0.0   ----- 
Wed 17:00  SSW  6/ 13  14.2 10.7  ------    0.6   0.0   0.0   0.0   ----- 
Wed 17:30  SSW  7/ 11  13.5 10.7  ------    0.6   0.0   0.0   0.0   ----- 
Wed 18:00    S  4/  7  13.0 10.6  ------    0.6   0.0   0.0   0.0   ----- 
Wed 18:30    C  0/  6  12.8 10.8  ------    0.6   0.0   0.0   0.0   ----- 

FLOREAT PARK AG STATION

Site: 009GFL
Alt: 158 m
7km W of PERTH CBD


  Time     Wind        Temp  DP   Baro     Rain since   Rain past  Vis(m), Cloud(base in m), Weather
  local        km/h                         9am  last   hr   10m    
Wed 13:00  WSW  4/  9  16.9 10.1  ------    0.0   0.0   0.0   0.0   ----- 
Wed 13:30   SW  4/  9  17.8 10.0  ------    0.0   0.0   0.0   0.0   ----- 
Wed 14:00   SW  4/  9  18.8 10.5  ------    0.0   0.0   0.0   0.0   ----- 
Wed 14:30  SSW  4/ 15  17.6  9.8  ------    0.0   0.0   0.0   0.0   ----- 
Wed 15:00  SSW  2/ 13  18.4 10.3  ------    0.0   0.0   0.0   0.0   ----- 
Wed 15:30    S  4/ 13  18.1  9.8  ------    0.0   0.0   0.0   0.0   ----- 
Wed 16:00    S  7/ 19  17.2  9.7  ------    0.0   0.0   0.0   0.0   ----- 
Wed 16:30    S  6/ 17  17.0 10.1  ------    0.0   0.0   0.0   0.0   ----- 
Wed 17:00    S  7/ 15  16.2  9.8  ------    0.0   0.0   0.0   0.0   ----- 
Wed 17:30  SSW  6/ 17  15.5  9.6  ------    0.0   0.0   0.0   0.0   ----- 
Wed 18:00    S  4/ 13  14.5  9.4  ------    0.0   0.0   0.0   0.0   ----- 
Wed 18:30    S  6/ 15  13.9  9.7  ------    0.0   0.0   0.0   0.0   ----- 

FRANKLAND

Site: 009GFR
Alt: 224 m
69km WNW of MOUNT BARKER


  Time     Wind        Temp  DP   Baro     Rain since   Rain past  Vis(m), Cloud(base in m), Weather
  local        km/h                         9am  last   hr   10m    
Wed 13:00   NW  4/ 11  16.9  9.2  ------    0.0   0.0   0.0   0.0   ----- 
Wed 13:30  WSW  2/ 11  17.5  8.7  ------    0.0   0.0   0.0   0.0   ----- 
Wed 14:00  WNW  4/ 11  18.7  9.5  ------    0.0   0.0   0.0   0.0   ----- 
Wed 14:30  NNW  6/ 13  18.5  8.7  ------    0.0   0.0   0.0   0.0   ----- 
Wed 15:00  WNW  4/ 13  19.0  9.0  ------    0.0   0.0   0.0   0.0   ----- 
Wed 15:30  NNW  2/  7  19.8  9.6  ------    0.0   0.0   0.0   0.0   ----- 
Wed 16:00   NW  4/  9  19.2  9.7  ------    0.0   0.0   0.0   0.0   ----- 
Wed 16:30  WNW  4/  7  19.2 10.1  ------    0.0   0.0   0.0   0.0   ----- 
Wed 17:00  WSW  4/  7  18.6  9.2  ------    0.0   0.0   0.0   0.0   ----- 
Wed 17:30  WSW  4/  6  17.3  8.8  ------    0.0   0.0   0.0   0.0   ----- 
Wed 18:00  WSW  4/  7  15.6  8.6  ------    0.0   0.0   0.0   0.0   ----- 
Wed 18:30  SSW  4/  9  14.6  8.9  ------    0.0   0.0   0.0   0.0   ----- 

GARDEN ISLAND HSF

Site: 009256
Alt: 6.0m
32km N of MANDURAH


  Time     Wind        Temp  DP   Baro     Rain since   Rain past  Vis(m), Cloud(base in m), Weather
  local        km/h                         9am  last   hr   10m    
Wed 13:00   SW 13/ 15  15.6  9.7  1027.8    0.0   0.0   0.0   0.0   ----- 
Wed 14:00   SW 15/ 20  15.3 10.1  1026.9    0.0   0.0   0.0   0.0   ----- 
Wed 15:00   SW 19/ 22  15.3 10.3  1026.4    0.0   0.0   0.0   0.0   ----- 
Wed 16:00   SW 22/ 26  15.0 10.6  1026.3    0.0   0.0   0.0   0.0   ----- 
Wed 17:00  SSW 20/ 22  14.8 10.8  1026.1    0.0   0.0   0.0   0.0   ----- 
Wed 18:00  SSW 24/ 26  14.8 11.4  1026.2    0.0   0.0   0.0   0.0   ----- 

GINGIN AERO

Site: 009178
Alt: 73.0m
54km N of PERTH CBD


  Time     Wind        Temp  DP   Baro     Rain since   Rain past  Vis(m), Cloud(base in m), Weather
  local        km/h                         9am  last   hr   10m    
Wed 13:00    S  6/  9  18.3  9.9  1026.9    0.0   0.0   0.0   0.0   ----- 
Wed 13:30   SW  7/ 13  18.9  9.9  1026.5    0.0   0.0   0.0   0.0   ----- 
Wed 14:00  SSE  9/ 15  19.3  8.9  1025.9    0.0   0.0   0.0   0.0   ----- 
Wed 14:30    E  4/  9  20.3  6.6  1025.4    0.0   0.0   0.0   0.0   ----- 
Wed 15:00    W  7/ 11  20.8  7.4  1025.2    0.0   0.0   0.0   0.0   ----- 
Wed 15:30   SW 20/ 32  19.9 10.6  1025.0    0.0   0.0   0.0   0.0   ----- 
Wed 16:00   SW 20/ 26  19.0 10.6  1025.0    0.0   0.0   0.0   0.0   ----- 
Wed 16:30  SSW 20/ 26  18.4 10.3  1025.1    0.0   0.0   0.0   0.0   ----- 
Wed 17:00  SSW 20/ 28  17.3 10.0  1025.3    0.0   0.0   0.0   0.0   ----- 
Wed 17:30   SW 20/ 24  16.1  9.5  1025.4    0.0   0.0   0.0   0.0   ----- 
Wed 18:00   SW 17/ 20  15.0  9.6  1025.6    0.0   0.0   0.0   0.0   ----- 
Wed 18:30  SSW 11/ 15  13.7  9.4  1025.8    0.0   0.0   0.0   0.0   ----- 

GINGIN WEST AG STATION

Site: 009GNW
Alt: m
km of


  Time     Wind        Temp  DP   Baro     Rain since   Rain past  Vis(m), Cloud(base in m), Weather
  local        km/h                         9am  last   hr   10m    
Wed 13:00  ENE  4/  7  18.5 10.7  ------    0.0   0.0   0.0   0.0   ----- 
Wed 13:30  SSW  9/ 19  19.9 11.3  ------    0.0   0.0   0.0   0.0   ----- 
Wed 14:00   SW 11/ 20  19.0 11.2  ------    0.0   0.0   0.0   0.0   ----- 
Wed 14:30  SSW 13/ 20  19.4 11.4  ------    0.0   0.0   0.0   0.0   ----- 
Wed 15:00  SSW 15/ 22  18.6 10.8  ------    0.0   0.0   0.0   0.0   ----- 
Wed 15:30  SSW 15/ 22  18.3 10.9  ------    0.0   0.0   0.0   0.0   ----- 
Wed 16:00  SSW 13/ 20  18.2 10.9  ------    0.0   0.0   0.0   0.0   ----- 
Wed 16:00  SSW 13/ 20  18.2 10.9  ------    0.0   0.0  ----   0.0   ----- 
Wed 16:30  SSW 17/ 26  17.0 10.4  ------    0.0   0.0   0.0   0.0   ----- 
Wed 17:00  SSW 15/ 24  16.2 10.0  ------    0.0   0.0   0.0   0.0   ----- 
Wed 17:00  SSW 15/ 24  16.2 10.0  ------    0.0   0.0  ----   0.0   ----- 
Wed 17:30    S 15/ 24  15.5  9.9  ------    0.0   0.0   0.0   0.0   ----- 
Wed 18:00  SSW 11/ 20  14.6  9.7  ------    0.0   0.0   0.0   0.0   ----- 
Wed 18:00  SSW 11/ 20  14.6  9.7  ------    0.0   0.0  ----   0.0   ----- 
Wed 18:30  SSW 11/ 17  13.3  9.8  ------    0.0   0.0   0.0   0.0   ----- 

GOOSEBERRY HILL

Site: 009204
Alt: 220.0m
18km E of PERTH CBD


  Time     Wind        Temp  DP   Baro     Rain since   Rain past  Vis(m), Cloud(base in m), Weather
  local        km/h                         9am  last   hr   10m    
Wed 13:00   NE  4/  7  17.5 10.6  ------   ----  ----  ----  ----   ----- 
Wed 13:30   NE  6/ 11  18.4 10.5  ------   ----  ----  ----  ----   ----- 
Wed 14:00    W  6/ 13  17.5  9.4  ------   ----  ----  ----  ----   ----- 
Wed 14:30    W  6/ 15  18.9 10.5  ------   ----  ----  ----  ----   ----- 
Wed 15:00    W  7/ 15  18.8  9.3  ------   ----  ----  ----  ----   ----- 
Wed 15:30  WSW  9/ 17  19.2  9.7  ------   ----  ----  ----  ----   ----- 
Wed 16:00  WSW 17/ 26  18.0  9.6  ------   ----  ----  ----  ----   ----- 
Wed 16:30   SW 22/ 30  17.1  9.8  ------   ----  ----  ----  ----   ----- 
Wed 17:00   SW 20/ 30  15.9 10.0  ------   ----  ----  ----  ----   ----- 
Wed 17:30   SW 20/ 26  14.8  9.8  ------   ----  ----  ----  ----   ----- 
Wed 18:00   SW 19/ 26  14.0  9.8  ------   ----  ----  ----  ----   ----- 
Wed 18:30   SW 17/ 22  13.3  9.7  ------   ----  ----  ----  ----   ----- 

HARVEY

Site: 009GHV
Alt: 38 m
35km NE of BUNBURY


  Time     Wind        Temp  DP   Baro     Rain since   Rain past  Vis(m), Cloud(base in m), Weather
  local        km/h                         9am  last   hr   10m    
Wed 13:00  WSW  2/---  17.6  9.7  ------    0.0   0.0   0.0   0.0   ----- 
Wed 13:30    S  2/---  17.7  9.5  ------    0.0   0.0   0.0   0.0   ----- 
Wed 14:00    W  2/---  18.3 10.7  ------    0.0   0.0   0.0   0.0   ----- 
Wed 14:30    W  2/---  17.8  9.8  ------    0.0   0.0   0.0   0.0   ----- 
Wed 15:00    W  2/---  17.5  9.5  ------    0.0   0.0   0.0   0.0   ----- 
Wed 15:30    W  2/---  17.5  9.6  ------    0.0   0.0   0.0   0.0   ----- 
Wed 16:00  WSW  2/---  17.3  9.9  ------    0.0   0.0   0.0   0.0   ----- 
Wed 16:30  WSW  2/---  16.5  9.4  ------    0.0   0.0   0.0   0.0   ----- 
Wed 17:00  WSW  2/---  14.7  9.3  ------    0.0   0.0   0.0   0.0   ----- 
Wed 17:30  WSW  2/---  14.9  9.5  ------    0.0   0.0   0.0   0.0   ----- 
Wed 18:00   SW  2/---  14.1  9.2  ------    0.0   0.0   0.0   0.0   ----- 
Wed 18:30   SW  2/---  12.6  8.9  ------    0.0   0.0   0.0   0.0   ----- 

HILLARYS BOAT HARBOUR NTC AWS

Site: 009265
Alt: 0.0m
18km NW of PERTH CBD


  Time     Wind        Temp  DP   Baro     Rain since   Rain past  Vis(m), Cloud(base in m), Weather
  local        km/h                         9am  last   hr   10m    
Wed 13:00   SW 11/ 19  14.3----  1027.0   ----  ----  ----  ----   ----- 
Wed 13:30   SW  9/ 17  14.8----  1026.5   ----  ----  ----  ----   ----- 

Wed 14:00  SSW  9/ 17  14.8----  1026.1   ----  ----  ----  ----   ----- 
Wed 14:30   SW 11/ 19  15.2----  1025.7   ----  ----  ----  ----   ----- 
Wed 15:00  SSW 11/ 17  15.2----  1025.5   ----  ----  ----  ----   ----- 
Wed 15:30  SSW  9/ 17  15.2----  1025.3   ----  ----  ----  ----   ----- 
Wed 16:00  SSW 13/ 22  15.6----  1025.3   ----  ----  ----  ----   ----- 
Wed 16:30  SSW 15/ 26  15.3----  1025.2   ----  ----  ----  ----   ----- 
Wed 17:00  SSW 11/ 28  15.3----  1025.3   ----  ----  ----  ----   ----- 
Wed 17:30    S  6/ 17  15.5----  1025.2   ----  ----  ----  ----   ----- 
Wed 18:00    S  7/ 17  15.1----  1025.4   ----  ----  ----  ----   ----- 
Wed 18:30  SSW  6/ 19  15.0----  1025.6   ----  ----  ----  ----   ----- 

HOPETOUN NORTH

Site: 009961
Alt: 26.0m
39km S of RAVENSTHORPE


  Time     Wind        Temp  DP   Baro     Rain since   Rain past  Vis(m), Cloud(base in m), Weather
  local        km/h                         9am  last   hr   10m    
Wed 13:00  SSW 19/ 24  16.8----  1026.2    0.0   0.0   0.0   0.0   ----- 
Wed 13:30  SSW 20/ 26  16.4----  1025.8    0.0   0.0   0.0   0.0   ----- 
Wed 14:00    S 19/ 26  16.6----  1025.4    0.0   0.0   0.0   0.0   ----- 
Wed 14:30    S 19/ 28  16.4----  1025.3    0.0   0.0   0.0   0.0   ----- 
Wed 15:00    S 17/ 24  16.1----  1025.0    0.0   0.0   0.0   0.0   ----- 
Wed 15:30    S 17/ 24  16.1----  1025.0    0.0   0.0   0.0   0.0   ----- 
Wed 16:00    S 17/ 24  16.1----  1025.0    0.0   0.0   0.0   0.0   ----- 
Wed 16:30    S 15/ 20  15.7----  1024.9    0.0   0.0   0.0   0.0   ----- 
Wed 17:00    S 15/ 20  15.2----  1025.1    0.0   0.0   0.0   0.0   ----- 
Wed 17:30    S 11/ 15  14.4----  1025.3    0.0   0.0   0.0   0.0   ----- 
Wed 18:00  SSE  9/ 13  13.4----  1025.5    0.0   0.0   0.0   0.0   ----- 
Wed 18:30  SSE  7/ 11  12.8----  1025.8    0.0   0.0   0.0   0.0   ----- 

INNER DOLPHIN PYLON

Site: 009091
Alt: 0.0m
5km SSW of PERTH CBD


  Time     Wind        Temp  DP   Baro     Rain since   Rain past  Vis(m), Cloud(base in m), Weather
  local        km/h                         9am  last   hr   10m    
Wed 13:00    S  2/  4 --------  ------   ----  ----  ----  ----   ----- 
Wed 13:30  SSW  9/ 11 --------  ------   ----  ----  ----  ----   ----- 
Wed 14:00   SW 13/ 19 --------  ------   ----  ----  ----  ----   ----- 
Wed 14:30  WSW 19/ 22 --------  ------   ----  ----  ----  ----   ----- 
Wed 15:00  WSW 19/ 20 --------  ------   ----  ----  ----  ----   ----- 
Wed 15:30  WSW 19/ 22 --------  ------   ----  ----  ----  ----   ----- 
Wed 16:00   SW 19/ 24 --------  ------   ----  ----  ----  ----   ----- 
Wed 16:30   SW 22/ 26 --------  ------   ----  ----  ----  ----   ----- 
Wed 17:00  SSW 20/ 24 --------  ------   ----  ----  ----  ----   ----- 
Wed 17:30  SSW 19/ 22 --------  ------   ----  ----  ----  ----   ----- 
Wed 18:00  SSW 20/ 24 --------  ------   ----  ----  ----  ----   ----- 
Wed 18:30  SSW 20/ 24 --------  ------   ----  ----  ----  ----   ----- 

JANDAKOT AERO

Site: 009172
Alt: 30.0m
17km S of PERTH CBD


  Time     Wind        Temp  DP   Baro     Rain since   Rain past  Vis(m), Cloud(base in m), Weather
  local        km/h                         9am  last   hr   10m    
Wed 13:00    S  4/ 11  17.6  9.8  1027.1    0.0   0.0   0.0   0.0   10000 
Wed 13:30  NNW  6/ 11  18.3 10.4  1026.6    0.0   0.0   0.0   0.0   10000 
Wed 14:00  SSW  9/ 17  18.5 10.1  1026.1    0.0   0.0   0.0   0.0   10000 
Wed 14:30   SW 17/ 24  18.7 11.3  1025.7    0.0   0.0   0.0   0.0   10000 
Wed 15:00    W 24/ 30  17.9 11.0  1025.5    0.0   0.0   0.0   0.0   10000 
Wed 15:30  WSW 22/ 28  17.4 11.2  1025.6    0.0   0.0   0.0   0.0   10000 
Wed 16:00   SW 24/ 30  16.6 11.3  1025.6    0.0   0.0   0.0   0.0   10000 
Wed 16:30   SW 22/ 30  16.5 11.6  1025.6    0.0   0.0   0.0   0.0   10000 
Wed 17:00  WSW 19/ 28  16.2 11.8  1025.5    0.0   0.0   0.0   0.0   10000 
Wed 17:30   SW 15/ 19  15.6 11.4  1025.6    0.0   0.0   0.0   0.0   10000 
Wed 18:00  SSW 17/ 22  14.7 11.7  1025.9    0.0   0.0   0.0   0.0   10000 
Wed 18:30   SW 15/ 20  13.8 11.8  1026.1    0.0   0.0   0.0   0.0   10000 

JURIEN BAY AG STATION

Site: 009URB
Alt: 80m
17km E of JURIEN BAY


  Time     Wind        Temp  DP   Baro     Rain since   Rain past  Vis(m), Cloud(base in m), Weather
  local        km/h                         9am  last   hr   10m    
Wed 13:00    E  7/ 17  21.3  7.9  ------    0.0   0.0   0.0   0.0   ----- 
Wed 13:30  ESE  7/ 19  21.8  8.3  ------    0.0   0.0   0.0   0.0   ----- 
Wed 13:30  ESE  7/ 19  21.8  8.3  ------    0.0   0.0  ----   0.0   ----- 
Wed 14:00  ESE  9/ 19  22.0  8.1  ------    0.0   0.0   0.0   0.0   ----- 
Wed 14:30    E  9/ 17  22.2  7.3  ------    0.0   0.0   0.0   0.0   ----- 
Wed 15:00   SE 11/ 19  22.8  7.6  ------    0.0   0.0   0.0   0.0   ----- 
Wed 15:00   SE 11/ 19  22.8  7.6  ------    0.0   0.0  ----   0.0   ----- 
Wed 15:30   SE 11/ 17  22.4  6.6  ------    0.0   0.0   0.0   0.0   ----- 
Wed 16:00  SSE 11/ 20  21.9 10.9  ------    0.0   0.0   0.0   0.0   ----- 
Wed 16:00  SSE 11/ 20  21.9 10.9  ------    0.0   0.0  ----   0.0   ----- 
Wed 16:30    S 11/ 22  21.1 11.8  ------    0.0   0.0   0.0   0.0   ----- 
Wed 17:00    S 11/ 20  19.8 11.9  ------    0.0   0.0   0.0   0.0   ----- 
Wed 17:00    S 11/ 20  19.8 11.9  ------    0.0   0.0  ----   0.0   ----- 
Wed 17:30  SSE 11/ 19  18.6 11.8  ------    0.0   0.0   0.0   0.0   ----- 
Wed 18:00  SSE  9/ 20  17.2 11.8  ------    0.0   0.0   0.0   0.0   ----- 
Wed 18:00  SSE  9/ 20  17.2 11.8  ------    0.0   0.0  ----   0.0   ----- 
Wed 18:30  SSE  7/ 17  15.7 11.8  ------    0.0   0.0   0.0   0.0   ----- 

LANCELIN EAST AG STATION

Site: 009GLE
Alt: m
km of


  Time     Wind        Temp  DP   Baro     Rain since   Rain past  Vis(m), Cloud(base in m), Weather
  local        km/h                         9am  last   hr   10m    
Wed 13:00    S  7/ 15  20.2 10.0  ------    0.0   0.0   0.0   0.0   ----- 
Wed 13:30    S  9/ 19  21.0 10.5  ------    0.0   0.0   0.0   0.0   ----- 
Wed 14:00  SSW 19/ 24  20.1 12.0  ------    0.0   0.0   0.0   0.0   ----- 
Wed 14:30  SSW 19/ 28  19.5 12.2  ------    0.0   0.0   0.0   0.0   ----- 
Wed 15:00   SW 17/ 26  19.6 11.9  ------    0.0   0.0   0.0   0.0   ----- 
Wed 15:30  SSW 19/ 26  19.5 12.0  ------    0.0   0.0   0.0   0.0   ----- 
Wed 16:00  SSW 20/ 26  18.7 11.8  ------    0.0   0.0   0.0   0.0   ----- 
Wed 16:30  SSW 19/ 26  18.2 11.5  ------    0.0   0.0   0.0   0.0   ----- 
Wed 17:00    S 24/ 30  17.1 11.1  ------    0.0   0.0   0.0   0.0   ----- 
Wed 17:30    S 22/ 32  15.7 10.8  ------    0.0   0.0   0.0   0.0   ----- 
Wed 18:00    S 19/ 24  14.3 10.6  ------    0.0   0.0   0.0   0.0   ----- 
Wed 18:30    S 19/ 26  13.1 10.4  ------    0.0   0.0   0.0   0.0   ----- 

MANDURAH

Site: 009977
Alt: 3.0m
1km NW of MANDURAH


  Time     Wind        Temp  DP   Baro     Rain since   Rain past  Vis(m), Cloud(base in m), Weather
  local        km/h                         9am  last   hr   10m    
Wed 13:00  WSW 19/ 24  16.2 10.5  1027.4    0.0   0.0   0.0   0.0   ----- 
Wed 13:30  WSW 19/ 24  16.4 11.3  1027.0    0.0   0.0   0.0   0.0   ----- 
Wed 14:00  WSW 19/ 26  16.1 11.1  1026.6    0.0   0.0   0.0   0.0   ----- 
Wed 14:30  WSW 19/ 26  16.2 11.2  1026.2    0.0   0.0   0.0   0.0   ----- 
Wed 15:00  WSW 20/ 28  16.1 11.1  1026.2    0.0   0.0   0.0   0.0   ----- 
Wed 15:30   SW 19/ 26  16.3 11.5  1026.0    0.0   0.0   0.0   0.0   ----- 
Wed 16:00   SW 19/ 26  15.9 10.9  1026.0    0.0   0.0   0.0   0.0   ----- 
Wed 16:30  WSW 17/ 26  15.6 11.2  1025.8    0.0   0.0   0.0   0.0   ----- 
Wed 17:00  SSW 13/ 20  15.7 11.1  1025.8    0.0   0.0   0.0   0.0   ----- 
Wed 17:30  SSW 11/ 17  15.4 11.2  1025.8    0.0   0.0   0.0   0.0   ----- 
Wed 18:00  SSW 11/ 19  15.1 11.5  1026.0    0.0   0.0   0.0   0.0   ----- 
Wed 18:30  SSW  9/ 13  14.8 11.6  1026.1    0.0   0.0   0.0   0.0   ----- 

MANJIMUP

Site: 009573
Alt: 286.7m
1km S of MANJIMUP


  Time     Wind        Temp  DP   Baro     Rain since   Rain past  Vis(m), Cloud(base in m), Weather
  local        km/h                         9am  last   hr   10m    
Wed 13:00   NW  9/ 15  16.4  8.6  1026.8    0.0   0.0   0.0   0.0   ----- 
Wed 14:00  NNW 11/ 15  18.0  8.8  1026.1    0.0   0.0   0.0   0.0   ----- 
Wed 15:00   SW  9/ 15  18.4  8.1  1025.7    0.0   0.0   0.0   0.0   ----- 
Wed 16:00   SW  9/ 15  18.8  8.7  1025.4    0.0   0.0   0.0   0.0   ----- 
Wed 17:00   SW 13/ 17  16.8 10.0  1025.4    0.0   0.0   0.0   0.0   ----- 
Wed 18:00   SW 13/ 20  14.2  9.6  1025.8    0.0   0.0   0.0   0.0   ----- 

MANJIMUP AG STATION

Site: 009GMA
Alt: m
km of


  Time     Wind        Temp  DP   Baro     Rain since   Rain past  Vis(m), Cloud(base in m), Weather
  local        km/h                         9am  last   hr   10m    
Wed 13:00    W  2/  7  16.7  9.8  ------    0.2   0.0   0.0   0.0   ----- 
Wed 13:30    S  2/  7  17.8 10.3  ------    0.2   0.0   0.0   0.0   ----- 
Wed 14:00    W  2/  9  18.3 10.6  ------    0.2   0.0   0.0   0.0   ----- 
Wed 14:30  SSW  7/ 15  18.4  9.9  ------    0.2   0.0   0.0   0.0   ----- 
Wed 15:00   SW  4/ 11  18.7  9.5  ------    0.2   0.0   0.0   0.0   ----- 
Wed 15:30   SW  4/ 13  18.9 10.5  ------    0.2   0.0   0.0   0.0   ----- 
Wed 16:00   SW  6/ 11  18.6 10.8  ------    0.2   0.0   0.0   0.0   ----- 
Wed 16:30  WSW  6/ 11  18.0 10.6  ------    0.2   0.0   0.0   0.0   ----- 
Wed 17:00   SW  6/ 11  16.6 10.7  ------    0.2   0.0   0.0   0.0   ----- 
Wed 17:30   SW  7/ 13  15.5 10.7  ------    0.2   0.0   0.0   0.0   ----- 
Wed 18:00  SSW  6/ 11  13.6  9.9  ------    0.2   0.0   0.0   0.0   ----- 
Wed 18:30   SW  4/  7  12.3  9.7  ------    0.2   0.0   0.0   0.0   ----- 

MANYPEAKS AG STATION

Site: 009GMP
Alt: 124.0m
33km NE of ALBANY


  Time     Wind        Temp  DP   Baro     Rain since   Rain past  Vis(m), Cloud(base in m), Weather
  local        km/h                         9am  last   hr   10m    
Wed 13:00  WSW  7/ 17  17.2 10.5  ------    0.2   0.0   0.0   0.0   ----- 
Wed 13:30  WSW  7/ 19  17.7 10.9  ------    0.2   0.0   0.0   0.0   ----- 
Wed 13:30  WSW  7/ 19  17.7 10.9  ------    0.2   0.0  ----   0.0   ----- 
Wed 14:00  SSW  9/ 17  18.2  9.5  ------    0.2   0.0   0.0   0.0   ----- 
Wed 14:30   SW  9/ 17  18.0  8.9  ------    0.2   0.0   0.0   0.0   ----- 
Wed 15:00  SSW  6/ 15  19.0 10.0  ------    0.2   0.0   0.0   0.0   ----- 
Wed 15:00  SSW  6/ 15  19.0 10.0  ------    0.2   0.0  ----   0.0   ----- 
Wed 15:30    S  7/ 17  19.2  9.8  ------    0.2   0.0   0.0   0.0   ----- 
Wed 16:00  SSE  7/ 15  18.0 11.2  ------    0.2   0.0   0.0   0.0   ----- 
Wed 16:00  SSE  7/ 15  18.0 11.2  ------    0.2   0.0  ----   0.0   ----- 
Wed 16:30    S 11/ 19  17.0 11.2  ------    0.2   0.0   0.0   0.0   ----- 
Wed 17:00  SSW 11/ 17  15.8 11.1  ------    0.2   0.0   0.0   0.0   ----- 
Wed 17:00  SSW 11/ 17  15.8 11.1  ------    0.2   0.0  ----   0.0   ----- 
Wed 17:30    S 11/ 19  14.3 10.8  ------    0.2   0.0   0.0   0.0   ----- 
Wed 18:00  SSW 11/ 24  13.6 10.9  ------    0.2   0.0   0.0   0.0   ----- 
Wed 18:00  SSW 11/ 24  13.6 10.9  ------    0.2   0.0  ----   0.0   ----- 
Wed 18:30    S  9/ 17  13.1 10.7  ------    0.2   0.0   0.0   0.0   ----- 

MERREDIN AG STATION

Site: 009GME
Alt: m
km of


  Time     Wind        Temp  DP   Baro     Rain since   Rain past  Vis(m), Cloud(base in m), Weather
  local        km/h                         9am  last   hr   10m    
Wed 13:00    S  4/ 11  19.8  5.2  ------    0.0   0.0   0.0   0.0   ----- 
Wed 13:30    S  7/ 19  20.1  4.9  ------    0.0   0.0   0.0   0.0   ----- 
Wed 14:00    S  9/ 19  20.9  5.7  ------    0.0   0.0   0.0   0.0   ----- 
Wed 14:30   SE  6/ 19  20.9  5.6  ------    0.0   0.0   0.0   0.0   ----- 
Wed 15:00  SSE  7/ 17  21.0  5.4  ------    0.0   0.0   0.0   0.0   ----- 
Wed 15:30    S  7/ 15  21.3  5.0  ------    0.0   0.0   0.0   0.0   ----- 
Wed 16:00    S  7/ 17  21.2  5.3  ------    0.0   0.0   0.0   0.0   ----- 
Wed 16:30    S  6/  9  21.4  5.4  ------    0.0   0.0   0.0   0.0   ----- 
Wed 17:00  SSE  6/ 13  20.3  5.5  ------    0.0   0.0   0.0   0.0   ----- 
Wed 17:30  SSE  6/  9  19.0  5.6  ------    0.0   0.0   0.0   0.0   ----- 
Wed 18:00  SSE  4/  7  16.0  6.5  ------    0.0   0.0   0.0   0.0   ----- 
Wed 18:30  SSE  4/  6  13.5  6.1  ------    0.0   0.0   0.0   0.0   ----- 

MILLENDON (SWAN VALLEY)

Site: 009281
Alt: 16.0m
km of


  Time     Wind        Temp  DP   Baro     Rain since   Rain past  Vis(m), Cloud(base in m), Weather
  local        km/h                         9am  last   hr   10m    
Wed 13:00    W  7/ 13  18.1 11.4  ------    0.0   0.0   0.0   0.0   ----- 
Wed 13:30   SW  7/ 13  18.2 10.8  ------    0.0   0.0   0.0   0.0   ----- 
Wed 14:00    W  7/ 15  18.8 10.4  ------    0.0   0.0   0.0   0.0   ----- 
Wed 14:30  WNW  4/ 11  19.2 10.5  ------    0.0   0.0   0.0   0.0   ----- 
Wed 15:00   SW  6/  9  19.4 10.1  ------    0.0   0.0   0.0   0.0   ----- 
Wed 15:30    W  6/ 11  20.0  9.6  ------    0.0   0.0   0.0   0.0   ----- 
Wed 16:00  WSW  7/ 11  20.1  9.1  ------    0.0   0.0   0.0   0.0   ----- 
Wed 16:30   SW 15/ 22  18.6  9.9  ------    0.0   0.0   0.0   0.0   ----- 
Wed 17:00  SSW 13/ 20  17.7  9.8  ------    0.0   0.0   0.0   0.0   ----- 
Wed 17:30   SW 11/ 20  17.0 10.1  ------    0.0   0.0   0.0   0.0   ----- 
Wed 18:00   SW  7/ 11  15.8 10.1  ------    0.0   0.0   0.0   0.0   ----- 
Wed 18:30   SW  4/  6  14.7 10.1  ------    0.0   0.0   0.0   0.0   ----- 

MOUNT BARKER AG STATION

Site: 009GMB
Alt: m
km of


  Time     Wind        Temp  DP   Baro     Rain since   Rain past  Vis(m), Cloud(base in m), Weather
  local        km/h                         9am  last   hr   10m    
Wed 13:00   SW  4/  9  17.8  7.6  ------    0.0   0.0   0.0   0.0   ----- 
Wed 13:30  NNW  6/ 13  18.0  9.2  ------    0.0   0.0   0.0   0.0   ----- 
Wed 14:00    W  6/ 13  18.4  7.5  ------    0.0   0.0   0.0   0.0   ----- 
Wed 14:30    W  7/ 15  19.3  8.6  ------    0.0   0.0   0.0   0.0   ----- 
Wed 15:00  SSW  7/ 17  19.9  9.7  ------    0.0   0.0   0.0   0.0   ----- 
Wed 15:30  SSW  7/ 11  19.7  9.2  ------    0.0   0.0   0.0   0.0   ----- 
Wed 16:00    S 15/ 22  18.1 11.5  ------    0.0   0.0   0.0   0.0   ----- 
Wed 16:30    S 13/ 19  16.8 11.2  ------    0.0   0.0   0.0   0.0   ----- 
Wed 17:00  SSE 13/ 20  15.3 11.1  ------    0.0   0.0   0.0   0.0   ----- 
Wed 17:30    S  9/ 17  14.2 10.7  ------    0.0   0.0   0.0   0.0   ----- 
Wed 18:00    S  9/ 13  12.6 10.2  ------    0.0   0.0   0.0   0.0   ----- 
Wed 18:30  SSE  9/ 13  11.6  9.7  ------    0.0   0.0   0.0   0.0   ----- 

MOUNT HOWICK AG STATION

Site: 009GHO
Alt: 120 m
78km ENE of ESPERANCE


  Time     Wind        Temp  DP   Baro     Rain since   Rain past  Vis(m), Cloud(base in m), Weather
  local        km/h                         9am  last   hr   10m    
Wed 13:00   SW 17/ 26  15.6 11.3  ------    0.4   0.0   0.0   0.0   ----- 
Wed 13:30   SW 17/ 26  16.3 11.1  ------    0.4   0.0   0.0   0.0   ----- 
Wed 13:30   SW 17/ 26  16.3 11.1  ------    0.4   0.0  ----   0.0   ----- 
Wed 14:00   SW 17/ 22  16.9 11.3  ------    0.4   0.0   0.0   0.0   ----- 
Wed 14:30   SW 17/ 20  16.5 11.4  ------    0.4   0.0   0.0   0.0   ----- 
Wed 15:00  SSW 17/ 24  15.9 10.4  ------    0.4   0.0   0.0   0.0   ----- 
Wed 15:00  SSW 17/ 24  15.9 10.4  ------    0.4   0.0  ----   0.0   ----- 
Wed 15:30  SSW 17/ 20  15.4 10.7  ------    0.4   0.0   0.0   0.0   ----- 
Wed 16:00  SSW 15/ 19  15.9 10.5  ------    0.4   0.0   0.0   0.0   ----- 
Wed 16:00  SSW 15/ 19  15.9 10.5  ------    0.4   0.0  ----   0.0   ----- 
Wed 16:30  SSW 15/ 22  15.5 10.6  ------    0.4   0.0   0.0   0.0   ----- 
Wed 17:00  SSW 11/ 15  14.6 10.5  ------    0.4   0.0   0.0   0.0   ----- 
Wed 17:00  SSW 11/ 15  14.6 10.5  ------    0.4   0.0  ----   0.0   ----- 
Wed 17:30  SSW  9/ 13  12.9  9.8  ------    0.4   0.0   0.0   0.0   ----- 
Wed 18:00  SSW  9/ 11  10.6  8.6  ------    0.4   0.0   0.0   0.0   ----- 
Wed 18:00  SSW  9/ 11  10.6  8.6  ------    0.4   0.0  ----   0.0   ----- 
Wed 18:30  SSW  7/  9   9.9  8.4  ------    0.4   0.0   0.0   0.0   ----- 

MYALUP AG STATION

Site: 009GMY
Alt: m
km of


  Time     Wind        Temp  DP   Baro     Rain since   Rain past  Vis(m), Cloud(base in m), Weather
  local        km/h                         9am  last   hr   10m    
Wed 13:00  WSW 13/ 20  15.3 10.1  ------    0.2   0.0   0.0   0.0   ----- 
Wed 13:30   SW  9/ 17  16.0 10.4  ------    0.2   0.0   0.0   0.0   ----- 
Wed 13:30   SW  9/ 17  16.0 10.4  ------    0.2   0.0  ----   0.0   ----- 
Wed 14:00  WSW  9/ 20  15.7 10.8  ------    0.2   0.0   0.0   0.0   ----- 
Wed 14:30  WSW 13/ 19  15.9 10.6  ------    0.2   0.0   0.0   0.0   ----- 
Wed 15:00  WSW 13/ 20  15.6 10.1  ------    0.2   0.0   0.0   0.0   ----- 
Wed 15:00  WSW 13/ 20  15.6 10.1  ------    0.2   0.0  ----   0.0   ----- 
Wed 15:30  WSW 11/ 19  16.1 10.9  ------    0.2   0.0   0.0   0.0   ----- 
Wed 16:00   SW  7/ 17  16.0 10.9  ------    0.2   0.0   0.0   0.0   ----- 
Wed 16:00   SW  7/ 17  16.0 10.9  ------    0.2   0.0  ----   0.0   ----- 
Wed 16:30  WSW  7/ 15  15.1 10.5  ------    0.2   0.0   0.0   0.0   ----- 
Wed 17:00   SW  7/ 17  16.1 11.3  ------    0.2   0.0   0.0   0.0   ----- 
Wed 17:00   SW  7/ 17  16.1 11.3  ------    0.2   0.0  ----   0.0   ----- 
Wed 17:30   SW  7/ 13  15.4 10.8  ------    0.2   0.0   0.0   0.0   ----- 
Wed 18:00   SW  4/  9  14.4 10.4  ------    0.2   0.0   0.0   0.0   ----- 
Wed 18:00   SW  4/  9  14.4 10.4  ------    0.2   0.0  ----   0.0   ----- 
Wed 18:30  SSW  2/  6  13.4 10.4  ------    0.2   0.0   0.0   0.0   ----- 

NEW NORCIA AG STATION

Site: 009NCA
Alt: 260m
12km S of NEW NORCIA


  Time     Wind        Temp  DP   Baro     Rain since   Rain past  Vis(m), Cloud(base in m), Weather
  local        km/h                         9am  last   hr   10m    
Wed 13:00    N  2/  9  17.6 10.7  ------    0.2   0.0   0.0   0.0   ----- 
Wed 13:30    C  0/  6  18.2  8.8  ------    0.2   0.0   0.0   0.0   ----- 
Wed 14:00  ENE  6/ 11  18.0  9.3  ------    0.2   0.0   0.0   0.0   ----- 
Wed 14:30    S  4/ 13  18.8 10.0  ------    0.2   0.0   0.0   0.0   ----- 
Wed 15:00   SE  4/  9  19.1  9.1  ------    0.2   0.0   0.0   0.0   ----- 
Wed 15:30    S  2/  7  20.0  8.1  ------    0.2   0.0   0.0   0.0   ----- 
Wed 16:00    C  0/  4  21.1  9.5  ------    0.2   0.0   0.0   0.0   ----- 
Wed 16:30  SSE  2/  6  20.6  9.0  ------    0.2   0.0   0.0   0.0   ----- 
Wed 17:00    C  0/  4  19.8  8.0  ------    0.2   0.0   0.0   0.0   ----- 
Wed 17:30    E  4/  7  18.3  6.6  ------    0.2   0.0   0.0   0.0   ----- 
Wed 18:00  SSW  2/  6  16.5  7.0  ------    0.2   0.0   0.0   0.0   ----- 
Wed 18:30  SSE  2/  6  13.6  8.3  ------    0.2   0.0   0.0   0.0   ----- 

NORTH WALPOLE

Site: 009998
Alt: 73.0m
95km SE of MANJIMUP


  Time     Wind        Temp  DP   Baro     Rain since   Rain past  Vis(m), Cloud(base in m), Weather
  local        km/h                         9am  last   hr   10m    
Wed 13:00    W 13/ 19  17.1  9.5  1026.0    0.0   0.0   0.0   0.0   ----- 
Wed 13:30    W 13/ 20  17.6  9.5  1025.7    0.0   0.0   0.0   0.0   ----- 
Wed 14:00    W 13/ 24  18.1 11.0  1025.5    0.0   0.0   0.0   0.0   ----- 
Wed 14:30  WSW 13/ 24  17.8 11.6  1025.4    0.0   0.0   0.0   0.0   ----- 
Wed 15:00  WSW 15/ 28  17.2 11.5  1025.3    0.0   0.0   0.0   0.0   ----- 
Wed 15:30  WSW 13/ 24  17.0 11.9  1025.2    0.0   0.0   0.0   0.0   ----- 
Wed 16:00  WSW 15/ 24  16.4 11.3  1025.1    0.0   0.0   0.0   0.0   ----- 
Wed 16:30  WSW 15/ 28  15.5 10.5  1025.2    0.0   0.0   0.0   0.0   ----- 
Wed 17:00  WSW 13/ 22  15.2 10.0  1025.4    0.0   0.0   0.0   0.0   ----- 
Wed 17:30    W 13/ 20  14.2  9.6  1025.3    0.0   0.0   0.0   0.0   ----- 
Wed 18:00  WSW 11/ 17  13.4 10.0  1025.5    0.0   0.0   0.0   0.0   ----- 
Wed 18:30    W  7/ 11  12.4  9.8  1025.6    0.0   0.0   0.0   0.0   ----- 

OCEAN REEF

Site: 009214
Alt: 10.0m
25km NNW of PERTH CBD


  Time     Wind        Temp  DP   Baro     Rain since   Rain past  Vis(m), Cloud(base in m), Weather
  local        km/h                         9am  last   hr   10m    
Wed 13:00  SSW 17/ 20 --------  ------   ----  ----  ----  ----   ----- 
Wed 13:30  SSW 17/ 19 --------  ------   ----  ----  ----  ----   ----- 
Wed 14:00  SSW 17/ 20 --------  ------   ----  ----  ----  ----   ----- 
Wed 14:30  SSW 17/ 20 --------  ------   ----  ----  ----  ----   ----- 
Wed 15:00  SSW 19/ 22 --------  ------   ----  ----  ----  ----   ----- 
Wed 15:30  SSW 19/ 22 --------  ------   ----  ----  ----  ----   ----- 
Wed 16:00  SSW 24/ 28 --------  ------   ----  ----  ----  ----   ----- 
Wed 16:30    S 24/ 28 --------  ------   ----  ----  ----  ----   ----- 
Wed 17:00    S 26/ 32 --------  ------   ----  ----  ----  ----   ----- 
Wed 17:30    S 24/ 30 --------  ------   ----  ----  ----  ----   ----- 
Wed 18:00    S 24/ 32 --------  ------   ----  ----  ----  ----   ----- 
Wed 18:30    S 24/ 30 --------  ------   ----  ----  ----  ----   ----- 

PEARCE RAAF

Site: 009053
Alt: 40.0m
35km NNE of PERTH CBD


  Time     Wind        Temp  DP   Baro     Rain since   Rain past  Vis(m), Cloud(base in m), Weather
  local        km/h                         9am  last   hr   10m    
Wed 13:00   SW  7/ 11  17.2 11.0  1027.0    0.0   0.0   0.0   0.0  *10000|FE 900cu 
Wed 13:30   SW  7/ 15  17.7 11.5  1026.6    0.0   0.0   0.0   0.0  *10000|FE 900cu 
Wed 14:00  WSW  7/ 13  19.0 11.3  1026.0    0.0   0.0   0.0   0.0   10000 
Wed 14:30  SSW  4/  9  19.2  9.9  1025.5    0.0   0.0   0.0   0.0   10000 
Wed 15:00    S  9/ 17  19.4 10.7  1025.3    0.0   0.0   0.0   0.0   10000 
Wed 15:30    S 11/ 17  20.0 10.4  1025.0    0.0   0.0   0.0   0.0   10000 
Wed 16:00  SSW 11/ 15  20.0  9.3  1024.9    0.0   0.0   0.0   0.0   10000 
Wed 16:30  SSW 17/ 22  19.2 10.5  1025.0    0.0   0.0   0.0   0.0   10000 
Wed 17:00   SW 20/ 26  17.7  9.8  1025.1    0.0   0.0   0.0   0.0   10000 
Wed 17:30  SSW 17/ 24  16.5  9.9  1025.3    0.0   0.0   0.0   0.0   10000 
Wed 18:00   SW 13/ 19  15.2  9.6  1025.6    0.0   0.0   0.0   0.0   10000 
Wed 18:30  SSW 13/ 17  14.0  9.2  1025.8    0.0   0.0   0.0   0.0   10000 

PEMBERTON AG STATION

Site: 009GPM
Alt: m
km of


  Time     Wind        Temp  DP   Baro     Rain since   Rain past  Vis(m), Cloud(base in m), Weather
  local        km/h                         9am  last   hr   10m    
Wed 13:00   SW  7/ 11  17.4  9.5  ------    0.0   0.0   0.0   0.0   ----- 
Wed 13:30   SW  7/ 13  17.3  9.5  ------    0.0   0.0   0.0   0.0   ----- 
Wed 14:00  WSW 11/ 17  18.0 11.2  ------    0.0   0.0   0.0   0.0   ----- 
Wed 14:30  WSW 11/ 20  17.4 10.7  ------    0.0   0.0   0.0   0.0   ----- 
Wed 15:00  WSW 13/ 22  17.1 10.9  ------    0.0   0.0   0.0   0.0   ----- 
Wed 15:30  WSW 17/ 20  16.4 10.9  ------    0.0   0.0   0.0   0.0   ----- 
Wed 16:00  WSW 13/ 19  16.3 10.8  ------    0.0   0.0   0.0   0.0   ----- 
Wed 16:30  WSW 13/ 17  15.6 10.1  ------    0.0   0.0   0.0   0.0   ----- 
Wed 17:00   SW 13/ 19  15.0 10.1  ------    0.0   0.0   0.0   0.0   ----- 
Wed 17:30  WSW 11/ 17  14.1 10.0  ------    0.0   0.0   0.0   0.0   ----- 
Wed 18:00   SW  9/ 13  12.8  9.6  ------    0.0   0.0   0.0   0.0   ----- 
Wed 18:30   SW  6/  9  11.8  9.4  ------    0.0   0.0   0.0   0.0   ----- 

PERTH AIRPORT

Site: 009021
Alt: 15.4m
11km ENE of PERTH CBD


  Time     Wind        Temp  DP   Baro     Rain since   Rain past  Vis(m), Cloud(base in m), Weather
  local        km/h                         9am  last   hr   10m    
Wed 13:00  NNW  7/ 11  17.6  9.1  1027.1    0.0   0.0   0.0   0.0  *10000|FE 840cu 
Wed 13:30    S  4/  9  18.1  8.3  1026.6    0.0   0.0   0.0   0.0  *10000|FE 960cu 
Wed 14:00  SSW  7/ 11  18.5  7.6  1026.1    0.0   0.0   0.0   0.0  *10000|FE1080cu 
Wed 14:30  SSW  7/ 24  19.4  7.6  1025.6    0.0   0.0   0.0   0.0   10000 
Wed 15:00    W 15/ 24  19.6  7.9  1025.3    0.0   0.0   0.0   0.0   10000 
Wed 15:30    W 19/ 26  19.1  8.7  1025.2    0.0   0.0   0.0   0.0   10000 
Wed 16:00    W 20/ 28  18.7  8.9  1025.2    0.0   0.0   0.0   0.0   10000 
Wed 16:30   SW 20/ 26  18.3  8.6  1025.3    0.0   0.0   0.0   0.0   10000 
Wed 17:00   SW 22/ 28  17.4  8.8  1025.4    0.0   0.0   0.0   0.0   10000 
Wed 17:30   SW 20/ 26  16.7  9.1  1025.4    0.0   0.0   0.0   0.0   10000 
Wed 18:00   SW 19/ 28  15.6  9.4  1025.7    0.0   0.0   0.0   0.0   10000 
Wed 18:30   SW 15/ 19  14.9  9.4  1025.9    0.0   0.0   0.0   0.0   10000 

PERTH METRO

Site: 009225
Alt: 24.9m
4km NNE of PERTH CBD


  Time     Wind        Temp  DP   Baro     Rain since   Rain past  Vis(m), Cloud(base in m), Weather
  local        km/h                         9am  last   hr   10m    
Wed 13:00  SSW  4/  9  18.0  8.8  1027.1    0.0   0.0   0.0   0.0   ----- 
Wed 13:30  SSW  6/ 11  18.3  8.8  1026.6    0.0   0.0   0.0   0.0   ----- 
Wed 14:00  SSW  2/  9  19.1  9.3  1026.1    0.0   0.0   0.0   0.0   ----- 
Wed 14:30   SW 11/ 17  18.9  8.3  1025.7    0.0   0.0   0.0   0.0   ----- 
Wed 15:00   SW  9/ 19  19.0  9.2  1025.5    0.0   0.0   0.0   0.0   ----- 
Wed 15:30   SW 13/ 20  18.4  9.2  1025.5    0.0   0.0   0.0   0.0   ----- 
Wed 16:00  WSW 15/ 24  18.0  9.1  1025.5    0.0   0.0   0.0   0.0   ----- 
Wed 16:30   SW 15/ 24  17.2  9.1  1025.5    0.0   0.0   0.0   0.0   ----- 
Wed 17:00  SSW 13/ 24  16.4  9.3  1025.6    0.0   0.0   0.0   0.0   ----- 
Wed 17:30   SW 11/ 19  15.6  9.5  1025.6    0.0   0.0   0.0   0.0   ----- 
Wed 18:00   SW 13/ 19  14.8  9.8  1025.8    0.0   0.0   0.0   0.0   ----- 
Wed 18:30  SSW  9/ 17  14.2  9.8  1026.0    0.0   0.0   0.0   0.0   ----- 

ROCKY GULLY

Site: 009964
Alt: 250.0m
87km ESE of MANJIMUP


  Time     Wind        Temp  DP   Baro     Rain since   Rain past  Vis(m), Cloud(base in m), Weather
  local        km/h                         9am  last   hr   10m    
Wed 13:00    S  6/ 11  16.8  8.0  ------    0.0   0.0   0.0   0.0   ----- 
Wed 13:30  WSW  7/ 17  17.3  7.9  ------    0.0   0.0   0.0   0.0   ----- 
Wed 14:00  WSW  9/ 15  18.0  7.7  ------    0.0   0.0   0.0   0.0   ----- 
Wed 14:30    W  9/ 15  18.4  8.4  ------    0.0   0.0   0.0   0.0   ----- 
Wed 15:00  WNW  9/ 13  18.8  7.3  ------    0.0   0.0   0.0   0.0   ----- 
Wed 15:30  WSW  7/ 15  19.1  7.5  ------    0.0   0.0   0.0   0.0   ----- 
Wed 16:00  SSW  7/ 13  19.1  6.9  ------    0.0   0.0   0.0   0.0   ----- 
Wed 16:30   SW  7/ 11  18.6  7.7  ------    0.0   0.0   0.0   0.0   ----- 
Wed 17:00  WSW  6/  9  18.4  7.5  ------    0.0   0.0   0.0   0.0   ----- 
Wed 17:30    S  9/ 15  16.2  9.8  ------    0.0   0.0   0.0   0.0   ----- 
Wed 18:00  SSW  9/ 15  14.9  9.5  ------    0.0   0.0   0.0   0.0   ----- 
Wed 18:30    S  7/ 13  13.5  9.2  ------    0.0   0.0   0.0   0.0   ----- 

ROTTNEST ISLAND

Site: 009193
Alt: 43.1m
34km W of PERTH CBD


  Time     Wind        Temp  DP   Baro     Rain since   Rain past  Vis(m), Cloud(base in m), Weather
  local        km/h                         9am  last   hr   10m    
Wed 13:00    S 19/ 22  14.6  8.8  1027.3    0.0   0.0   0.0   0.0   ----- 
Wed 13:30    S 17/ 22  15.2  8.9  1026.9    0.0   0.0   0.0   0.0   ----- 
Wed 14:00    S 17/ 22  15.3  9.2  1026.5    0.0   0.0   0.0   0.0   ----- 
Wed 14:30    S 17/ 20  15.1  9.2  1026.2    0.0   0.0   0.0   0.0   ----- 
Wed 15:00    S 17/ 20  14.9  8.6  1025.9    0.0   0.0   0.0   0.0   ----- 
Wed 15:30    S 20/ 24  15.1  9.2  1025.7    0.0   0.0   0.0   0.0   ----- 
Wed 16:00    S 20/ 24  15.1  9.2  1025.7    0.0   0.0   0.0   0.0   ----- 
Wed 16:30    S 20/ 26  15.0  9.6  1025.7    0.0   0.0   0.0   0.0   ----- 
Wed 17:00    S 22/ 28  14.7  9.7  1025.5    0.0   0.0   0.0   0.0   ----- 
Wed 17:30    S 24/ 30  14.4  9.8  1025.5    0.0   0.0   0.0   0.0   ----- 
Wed 18:00    S 22/ 28  14.1  9.9  1025.7    0.0   0.0   0.0   0.0   ----- 
Wed 18:30    S 22/ 28  14.0  9.6  1025.7    0.0   0.0   0.0   0.0   ----- 

SCOTT RIVER AG STATION

Site: 009CTR
Alt: 30m
72km WNW of PEMBERTON


  Time     Wind        Temp  DP   Baro     Rain since   Rain past  Vis(m), Cloud(base in m), Weather
  local        km/h                         9am  last   hr   10m    
Wed 13:00    S  7/ 15  17.5 11.4  ------    0.0   0.0   0.0   0.0   ----- 
Wed 13:30    S 15/ 20  17.5 12.0  ------    0.0   0.0   0.0   0.0   ----- 
Wed 14:00  SSE 15/ 20  16.6 11.1  ------    0.0   0.0   0.0   0.0   ----- 
Wed 14:30    S 11/ 24  17.7 11.2  ------    0.0   0.0   0.0   0.0   ----- 
Wed 15:00   SW 11/ 19  17.5 10.7  ------    0.0   0.0   0.0   0.0   ----- 
Wed 15:30  WSW  9/ 20  17.5 10.3  ------    0.0   0.0   0.0   0.0   ----- 
Wed 16:00   SW  9/ 17  17.0 10.4  ------    0.0   0.0   0.0   0.0   ----- 
Wed 16:30  WSW  9/ 17  16.4 10.7  ------    0.0   0.0   0.0   0.0   ----- 
Wed 17:00   SW  9/ 15  15.8 10.2  ------    0.0   0.0   0.0   0.0   ----- 
Wed 17:30  WSW  7/ 13  14.9 10.1  ------    0.0   0.0   0.0   0.0   ----- 
Wed 18:00  WSW  6/ 11  13.8  9.7  ------    0.0   0.0   0.0   0.0   ----- 
Wed 18:30    W  4/  4  12.4  9.4  ------    0.0   0.0   0.0   0.0   ----- 

SHANNON

Site: 009968
Alt: 210.0m
40km SSE of MANJIMUP


  Time     Wind        Temp  DP   Baro     Rain since   Rain past  Vis(m), Cloud(base in m), Weather
  local        km/h                         9am  last   hr   10m    
Wed 13:00    W  9/ 13  16.9 11.6  ------    0.2   0.0   0.0   0.0   ----- 
Wed 14:00  SSW  9/ 15  17.1 10.7  ------    0.2   0.0   0.0   0.0   ----- 
Wed 15:00   SW 13/ 20  17.0  9.7  ------    0.2   0.0   0.0   0.0   ----- 
Wed 16:00   SW 17/ 20  16.4 11.6  ------    0.2   0.0   0.0   0.0   ----- 
Wed 17:00  WSW 15/ 19  15.1 10.7  ------    0.2   0.0   0.0   0.0   ----- 
Wed 18:00  WSW 13/ 17  12.5 10.4  ------    0.2   0.0   0.0   0.0   ----- 

SOUTH PERTH AG STATION

Site: 009GSP
Alt: m
km of


  Time     Wind        Temp  DP   Baro     Rain since   Rain past  Vis(m), Cloud(base in m), Weather
  local        km/h                         9am  last   hr   10m    

Wed 13:00   SW  4/ 11  17.9  8.6  ------    0.0   0.0   0.0   0.0   ----- 
Wed 13:30    W  4/ 11  18.6  8.7  ------    0.0   0.0   0.0   0.0   ----- 
Wed 14:00    W  4/ 11  18.9  8.5  ------    0.0   0.0   0.0   0.0   ----- 
Wed 14:30  WNW  7/ 17  18.1  9.4  ------    0.0   0.0   0.0   0.0   ----- 
Wed 15:00    W  6/ 13  18.6  9.0  ------    0.0   0.0   0.0   0.0   ----- 
Wed 15:30    W  7/ 17  18.4  9.2  ------    0.0   0.0   0.0   0.0   ----- 
Wed 16:00  WSW  7/ 13  18.0  8.6  ------    0.0   0.0   0.0   0.0   ----- 
Wed 16:30   SW  6/ 15  17.9  9.2  ------    0.0   0.0   0.0   0.0   ----- 
Wed 17:00  SSW  4/ 13  17.2  9.1  ------    0.0   0.0   0.0   0.0   ----- 
Wed 17:30   SW  4/ 11  16.4  9.3  ------    0.0   0.0   0.0   0.0   ----- 
Wed 18:00   SW  2/  9  15.2  9.3  ------    0.0   0.0   0.0   0.0   ----- 
Wed 18:30  WSW  4/  9  14.5  9.5  ------    0.0   0.0   0.0   0.0   ----- 

STIRLINGS SOUTH AG STATION

Site: 009LGS
Alt: 150m
26km ENE of MOUNT BARKER


  Time     Wind        Temp  DP   Baro     Rain since   Rain past  Vis(m), Cloud(base in m), Weather
  local        km/h                         9am  last   hr   10m    
Wed 13:00    W  6/ 17  17.1 10.1  ------    0.0   0.0   0.0   0.0   ----- 
Wed 13:30    W  6/ 13  17.8  9.8  ------    0.0   0.0   0.0   0.0   ----- 
Wed 14:00    W  7/ 17  17.8  9.3  ------    0.0   0.0   0.0   0.0   ----- 
Wed 14:30    W  6/ 13  18.8  9.4  ------    0.0   0.0   0.0   0.0   ----- 
Wed 15:00  WSW  6/ 13  19.4 10.1  ------    0.0   0.0   0.0   0.0   ----- 
Wed 15:30    W  4/ 13  18.9  8.7  ------    0.0   0.0   0.0   0.0   ----- 
Wed 16:00  WSW  6/  9  19.3  8.8  ------    0.0   0.0   0.0   0.0   ----- 
Wed 16:30    W  2/  7  19.4  9.0  ------    0.0   0.0   0.0   0.0   ----- 
Wed 17:00  WSW  4/  7  18.5  9.5  ------    0.0   0.0   0.0   0.0   ----- 
Wed 17:30    S  6/ 11  16.3 11.7  ------    0.0   0.0   0.0   0.0   ----- 
Wed 18:00    C  0/  6  13.8 11.9  ------    0.0   0.0   0.0   0.0   ----- 
Wed 18:30    C  0/  2  12.8 11.9  ------    0.0   0.0   0.0   0.0   ----- 

SWANBOURNE

Site: 009215
Alt: 41.0m
9km E of PERTH CBD


  Time     Wind        Temp  DP   Baro     Rain since   Rain past  Vis(m), Cloud(base in m), Weather
  local        km/h                         9am  last   hr   10m    
Wed 13:00   SW 11/ 19  15.2  9.6  ------    0.0   0.0   0.0   0.0   ----- 
Wed 13:30   SW 13/ 19  15.4  9.1  ------    0.0   0.0   0.0   0.0   ----- 
Wed 14:00   SW 15/ 22  15.9  9.6  ------    0.0   0.0   0.0   0.0   ----- 
Wed 14:30   SW 15/ 20  16.3 10.2  ------    0.0   0.0   0.0   0.0   ----- 
Wed 15:00  SSW 13/ 20  15.9 10.0  ------    0.0   0.0   0.0   0.0   ----- 
Wed 15:30   SW 15/ 22  16.0  9.9  ------    0.0   0.0   0.0   0.0   ----- 
Wed 16:00  SSW 17/ 24  15.6 10.4  ------    0.0   0.0   0.0   0.0   ----- 
Wed 16:30  SSW 15/ 24  15.8 10.3  ------    0.0   0.0   0.0   0.0   ----- 
Wed 17:00  SSW 19/ 26  15.1 10.3  ------    0.0   0.0   0.0   0.0   ----- 
Wed 17:30  SSW 15/ 22  14.7 10.7  ------    0.0   0.0   0.0   0.0   ----- 
Wed 18:00    S 13/ 19  14.0 10.6  ------    0.0   0.0   0.0   0.0   ----- 
Wed 18:30    S 13/ 20  13.7 10.5  ------    0.0   0.0   0.0   0.0   ----- 

VASSE AG STATION

Site: 009GVA
Alt: m
11km SSE of BUSSELTON


  Time     Wind        Temp  DP   Baro     Rain since   Rain past  Vis(m), Cloud(base in m), Weather
  local        km/h                         9am  last   hr   10m    
Wed 13:00  WNW  7/ 17  17.5 10.6  ------    0.0   0.0   0.0   0.0   ----- 
Wed 13:30  WNW  9/ 17  18.0 12.4  ------    0.0   0.0   0.0   0.0   ----- 
Wed 14:00   NW  9/ 19  16.9 13.6  ------    0.0   0.0   0.0   0.0   ----- 
Wed 14:30    N 11/ 19  17.5 13.3  ------    0.0   0.0   0.0   0.0   ----- 
Wed 15:00  NNW 11/ 19  17.2 12.7  ------    0.0   0.0   0.0   0.0   ----- 
Wed 15:30  NNW  7/ 17  18.0 13.7  ------    0.0   0.0   0.0   0.0   ----- 
Wed 16:00    W  9/ 15  17.9 13.1  ------    0.0   0.0   0.0   0.0   ----- 
Wed 16:30    W 11/ 19  17.1 13.1  ------    0.0   0.0   0.0   0.0   ----- 
Wed 17:00    W  9/ 17  16.4 12.2  ------    0.0   0.0   0.0   0.0   ----- 
Wed 17:30    W  7/ 11  15.6 12.1  ------    0.0   0.0   0.0   0.0   ----- 
Wed 18:00    W  7/ 11  14.1 11.8  ------    0.0   0.0   0.0   0.0   ----- 
Wed 18:30   SW  4/ 13  13.0 11.4  ------    0.0   0.0   0.0   0.0   ----- 

WANNEROO AG STATION

Site: 009GWN
Alt: m
km of


  Time     Wind        Temp  DP   Baro     Rain since   Rain past  Vis(m), Cloud(base in m), Weather
  local        km/h                         9am  last   hr   10m    
Wed 13:00   SW  9/ 17  16.5 10.9  ------    0.0   0.0   0.0   0.0   ----- 
Wed 13:30   SW  9/ 20  16.7 11.0  ------    0.0   0.0   0.0   0.0   ----- 
Wed 14:00   SW  9/ 17  17.1 11.3  ------    0.0   0.0   0.0   0.0   ----- 
Wed 14:30  SSW  7/ 17  17.0 10.7  ------    0.0   0.0   0.0   0.0   ----- 
Wed 15:00  SSW  7/ 20  18.1 11.4  ------    0.0   0.0   0.0   0.0   ----- 
Wed 15:30  SSW  7/ 17  17.8 11.3  ------    0.0   0.0   0.0   0.0   ----- 
Wed 16:00  SSW  7/ 15  17.4 11.1  ------    0.0   0.0   0.0   0.0   ----- 
Wed 16:30  SSW  7/ 17  17.0 10.5  ------    0.0   0.0   0.0   0.0   ----- 
Wed 17:00    S  9/ 20  16.6 10.7  ------    0.0   0.0   0.0   0.0   ----- 
Wed 17:30    S  7/ 17  15.8 10.4  ------    0.0   0.0   0.0   0.0   ----- 
Wed 18:00    S  6/ 13  14.5 10.4  ------    0.0   0.0   0.0   0.0   ----- 
Wed 18:30    S  4/  7  13.6 10.3  ------    0.0   0.0   0.0   0.0   ----- 

WAROONA

Site: 009GWR
Alt: 36 m
39km SSE of MANDURAH


  Time     Wind        Temp  DP   Baro     Rain since   Rain past  Vis(m), Cloud(base in m), Weather
  local        km/h                         9am  last   hr   10m    
Wed 13:00    W  9/---  16.8 11.0  ------    0.0   0.0   0.0   0.0   ----- 
Wed 13:30    W  7/---  17.6 12.3  ------    0.0   0.0   0.0   0.0   ----- 
Wed 14:00  SSW  6/---  18.7 12.7  ------    0.0   0.0   0.0   0.0   ----- 
Wed 14:30   SW  7/---  18.6 12.4  ------    0.0   0.0   0.0   0.0   ----- 
Wed 15:00  WSW  9/---  18.0 12.6  ------    0.0   0.0   0.0   0.0   ----- 
Wed 15:30   SW  9/---  17.5 11.9  ------    0.0   0.0   0.0   0.0   ----- 
Wed 16:00  WSW  9/---  17.1 11.9  ------    0.0   0.0   0.0   0.0   ----- 
Wed 16:30   SW  7/---  15.9 11.0  ------    0.0   0.0   0.0   0.0   ----- 
Wed 17:00   SW  7/---  14.8 10.8  ------    0.0   0.0   0.0   0.0   ----- 
Wed 17:30   SW  6/---  15.2 11.3  ------    0.0   0.0   0.0   0.0   ----- 
Wed 18:00  SSW  6/---  13.9 10.9  ------    0.0   0.0   0.0   0.0   ----- 
Wed 18:30  SSW  2/---  12.8 10.6  ------    0.0   0.0   0.0   0.0   ----- 

WELLSTEAD AG STATION

Site: 009GWE
Alt: m
89km NE of ALBANY


  Time     Wind        Temp  DP   Baro     Rain since   Rain past  Vis(m), Cloud(base in m), Weather
  local        km/h                         9am  last   hr   10m    
Wed 13:00    W 11/ 22  17.5  9.5  ------    0.0   0.0   0.0   0.0   ----- 
Wed 13:30   SW  7/ 20  18.0  9.8  ------    0.0   0.0   0.0   0.0   ----- 
Wed 14:00  WSW  9/ 19  18.3  8.8  ------    0.0   0.0   0.0   0.0   ----- 
Wed 14:30    W 11/ 19  18.6  8.4  ------    0.0   0.0   0.0   0.0   ----- 
Wed 15:00    S  7/ 19  20.0  8.6  ------    0.0   0.0   0.0   0.0   ----- 
Wed 15:30  SSE  9/ 17  17.7 10.8  ------    0.0   0.0   0.0   0.0   ----- 
Wed 16:00   SE  7/ 15  17.2 10.5  ------    0.0   0.0   0.0   0.0   ----- 
Wed 16:30   SE  9/ 19  15.7 10.0  ------    0.0   0.0   0.0   0.0   ----- 
Wed 17:00   SE  7/ 17  15.2  9.9  ------    0.0   0.0   0.0   0.0   ----- 
Wed 17:30   SE  6/ 13  14.4  9.7  ------    0.0   0.0   0.0   0.0   ----- 
Wed 18:00   SE  4/  7  13.2  9.7  ------    0.0   0.0   0.0   0.0   ----- 
Wed 18:30    E  2/  6  11.9  9.5  ------    0.0   0.0   0.0   0.0   ----- 

WILYABRUP AG STATION

Site: 009LBP
Alt: 100m
30km SW of BUSSELTON


  Time     Wind        Temp  DP   Baro     Rain since   Rain past  Vis(m), Cloud(base in m), Weather
  local        km/h                         9am  last   hr   10m    
Wed 13:00    W  6/ 17  16.1  8.8  ------    0.0   0.0   0.0   0.0   ----- 
Wed 13:30  WSW  9/ 17  15.9  8.7  ------    0.0   0.0   0.0   0.0   ----- 
Wed 13:30  WSW  9/ 17  15.9  8.7  ------    0.0   0.0  ----   0.0   ----- 
Wed 14:00   SW  7/ 17  15.7  8.5  ------    0.0   0.0   0.0   0.0   ----- 
Wed 14:30  WSW  7/ 17  15.9  9.4  ------    0.0   0.0   0.0   0.0   ----- 
Wed 15:00  WSW  7/ 20  15.4  8.8  ------    0.0   0.0   0.0   0.0   ----- 
Wed 15:00  WSW  7/ 20  15.4  8.8  ------    0.0   0.0  ----   0.0   ----- 
Wed 15:30  WSW  7/ 20  15.4  9.0  ------    0.0   0.0   0.0   0.0   ----- 
Wed 16:00  WSW  7/ 19  14.9  8.7  ------    0.0   0.0   0.0   0.0   ----- 
Wed 16:00  WSW  7/ 19  14.9  8.7  ------    0.0   0.0  ----   0.0   ----- 
Wed 16:30   SW  7/ 15  15.0  8.9  ------    0.0   0.0   0.0   0.0   ----- 
Wed 17:00  WSW  6/ 15  14.7  8.8  ------    0.0   0.0   0.0   0.0   ----- 
Wed 17:00  WSW  6/ 15  14.7  8.8  ------    0.0   0.0  ----   0.0   ----- 
Wed 17:30  WSW  4/ 13  14.1  8.4  ------    0.0   0.0   0.0   0.0   ----- 
Wed 18:00   SW  4/  7  13.0  8.4  ------    0.0   0.0   0.0   0.0   ----- 
Wed 18:00   SW  4/  7  13.0  8.4  ------    0.0   0.0  ----   0.0   ----- 
Wed 18:30  SSW  4/  9  12.0  8.6  ------    0.0   0.0   0.0   0.0   ----- 

WITCHCLIFFE

Site: 009746
Alt: 80.0m
9km SSE of MARGARET RIVER


  Time     Wind        Temp  DP   Baro     Rain since   Rain past  Vis(m), Cloud(base in m), Weather
  local        km/h                         9am  last   hr   10m    
Wed 13:00    W 13/ 19  16.1 10.6  1027.5    0.0   0.0   0.0   0.0   ----- 
Wed 13:30    W 13/ 20  16.2 10.7  1027.2    0.0   0.0   0.0   0.0   ----- 
Wed 14:00    W 15/ 20  15.9 10.7  1026.9    0.0   0.0   0.0   0.0   ----- 
Wed 14:30    W 17/ 22  15.5 10.1  1026.8    0.0   0.0   0.0   0.0   ----- 
Wed 15:00    W 15/ 20  15.6  9.9  1026.4    0.0   0.0   0.0   0.0   ----- 
Wed 15:30  WSW 13/ 20  15.5  9.6  1026.3    0.0   0.0   0.0   0.0   ----- 
Wed 16:00    W 15/ 22  15.2  9.6  1026.3    0.0   0.0   0.0   0.0   ----- 
Wed 16:30    W 15/ 20  14.8  9.4  1026.4    0.0   0.0   0.0   0.0   ----- 
Wed 17:00  WSW 15/ 20  14.3  9.3  1026.4    0.0   0.0   0.0   0.0   ----- 
Wed 17:30  WSW 11/ 17  13.7  9.2  1026.4    0.0   0.0   0.0   0.0   ----- 
Wed 18:00   SW  9/ 13  12.7  9.0  1026.5    0.0   0.0   0.0   0.0   ----- 
Wed 18:30    C  0/  0  11.8  8.8  1026.7    0.0   0.0   0.0   0.0   -----